Wetterdaten: Sonntag, 19.10.2014
Datum Zeit Temp. Aussen +5cm Feuchte Auss Luftdruck Regen Sonnenschein Regendauer Solar Windben
19.10.2014 00:00 16,0 C 13,9 C 92 % 1018,0 hPa 0,0 l/m 0 min 0 min 0 W/m 14,6 km/h (3 Bft)
19.10.2014 00:02 15,9 C 14,4 C 92 % 1018,0 hPa 0,0 l/m 0 min 0 min 0 W/m 14,6 km/h (3 Bft)
19.10.2014 00:06 15,9 C 13,9 C 92 % 1018,0 hPa 0,0 l/m 0 min 0 min 0 W/m 16,7 km/h (3 Bft)
19.10.2014 00:08 15,9 C 13,9 C 92 % 1018,0 hPa 0,0 l/m 0 min 0 min 0 W/m 10,5 km/h (2 Bft)
19.10.2014 00:10 15,9 C 13,9 C 92 % 1018,0 hPa 0,0 l/m 0 min 0 min 0 W/m 10,5 km/h (2 Bft)
19.10.2014 00:12 15,9 C 13,9 C 93 % 1018,0 hPa 0,0 l/m 0 min 0 min 0 W/m 18,8 km/h (3 Bft)
19.10.2014 00:14 15,8 C 13,9 C 93 % 1018,1 hPa 0,0 l/m 0 min 0 min 0 W/m 14,6 km/h (3 Bft)
19.10.2014 00:16 15,8 C 13,9 C 93 % 1018,1 hPa 0,0 l/m 0 min 0 min 0 W/m 14,6 km/h (3 Bft)
19.10.2014 00:17 15,8 C 13,9 C 93 % 1018,1 hPa 0,0 l/m 0 min 0 min 0 W/m 10,5 km/h (2 Bft)
19.10.2014 00:18 15,8 C 13,9 C 93 % 1018,1 hPa 0,0 l/m 0 min 0 min 0 W/m 6,3 km/h (2 Bft)
19.10.2014 00:20 15,8 C 13,9 C 93 % 1018,1 hPa 0,0 l/m 0 min 0 min 0 W/m 10,5 km/h (2 Bft)
19.10.2014 00:22 15,8 C 13,9 C 93 % 1018,1 hPa 0,0 l/m 0 min 0 min 0 W/m 16,7 km/h (3 Bft)
19.10.2014 00:24 15,7 C 13,9 C 93 % 1018,2 hPa 0,0 l/m 0 min 0 min 0 W/m 14,6 km/h (3 Bft)
19.10.2014 00:26 15,7 C 13,9 C 93 % 1018,2 hPa 0,0 l/m 0 min 0 min 0 W/m 12,6 km/h (3 Bft)
19.10.2014 00:28 15,7 C 13,9 C 93 % 1018,3 hPa 0,0 l/m 0 min 0 min 0 W/m 10,5 km/h (2 Bft)
19.10.2014 00:30 15,7 C 13,9 C 93 % 1018,3 hPa 0,0 l/m 0 min 0 min 0 W/m 12,6 km/h (3 Bft)
19.10.2014 00:32 15,7 C 13,9 C 93 % 1018,2 hPa 0,0 l/m 0 min 0 min 0 W/m 14,6 km/h (3 Bft)
19.10.2014 00:34 15,6 C 13,9 C 93 % 1018,2 hPa 0,0 l/m 0 min 0 min 0 W/m 12,6 km/h (3 Bft)
19.10.2014 00:36 15,6 C 13,9 C 93 % 1018,1 hPa 0,0 l/m 0 min 0 min 0 W/m 12,6 km/h (3 Bft)
19.10.2014 00:38 15,6 C 13,9 C 93 % 1018,1 hPa 0,0 l/m 0 min 0 min 0 W/m 10,5 km/h (2 Bft)
19.10.2014 00:40 15,6 C 13,9 C 93 % 1018,1 hPa 0,0 l/m 0 min 0 min 0 W/m 14,6 km/h (3 Bft)
19.10.2014 00:42 15,6 C 13,9 C 93 % 1018,0 hPa 0,0 l/m 0 min 0 min 0 W/m 18,8 km/h (3 Bft)
19.10.2014 00:44 15,6 C 13,9 C 93 % 1018,0 hPa 0,0 l/m 0 min 0 min 0 W/m 8,4 km/h (2 Bft)
19.10.2014 00:46 15,5 C 13,9 C 93 % 1018,0 hPa 0,0 l/m 0 min 0 min 0 W/m 10,5 km/h (2 Bft)
19.10.2014 00:48 15,5 C 13,9 C 93 % 1018,0 hPa 0,0 l/m 0 min 0 min 0 W/m 14,6 km/h (3 Bft)
19.10.2014 00:50 15,5 C 13,9 C 93 % 1018,0 hPa 0,0 l/m 0 min 0 min 0 W/m 10,5 km/h (2 Bft)
19.10.2014 00:52 15,5 C 13,9 C 93 % 1018,0 hPa 0,0 l/m 0 min 0 min 0 W/m 8,4 km/h (2 Bft)
19.10.2014 00:54 15,4 C 13,9 C 93 % 1018,0 hPa 0,0 l/m 0 min 0 min 0 W/m 10,5 km/h (2 Bft)
19.10.2014 00:56 15,4 C 13,9 C 93 % 1018,0 hPa 0,0 l/m 0 min 0 min 0 W/m 14,6 km/h (3 Bft)
19.10.2014 00:58 15,4 C 13,9 C 93 % 1018,0 hPa 0,0 l/m 0 min 0 min 0 W/m 12,6 km/h (3 Bft)
19.10.2014 01:00 15,4 C 13,9 C 93 % 1017,9 hPa 0,0 l/m 0 min 0 min 0 W/m 12,6 km/h (3 Bft)
19.10.2014 01:02 15,4 C 13,9 C 93 % 1018,0 hPa 0,0 l/m 0 min 0 min 0 W/m 16,7 km/h (3 Bft)
19.10.2014 01:04 15,4 C 13,9 C 93 % 1018,0 hPa 0,0 l/m 0 min 0 min 0 W/m 14,6 km/h (3 Bft)
19.10.2014 01:06 15,3 C 13,9 C 93 % 1017,9 hPa 0,0 l/m 0 min 0 min 0 W/m 16,7 km/h (3 Bft)
19.10.2014 01:08 15,3 C 13,9 C 93 % 1017,9 hPa 0,0 l/m 0 min 0 min 0 W/m 14,6 km/h (3 Bft)
19.10.2014 01:10 15,3 C 13,9 C 93 % 1017,9 hPa 0,0 l/m 0 min 0 min 0 W/m 14,6 km/h (3 Bft)
19.10.2014 01:12 15,3 C 13,3 C 93 % 1017,9 hPa 0,0 l/m 0 min 0 min 0 W/m 16,7 km/h (3 Bft)
19.10.2014 01:14 15,3 C 13,3 C 93 % 1017,9 hPa 0,0 l/m 0 min 0 min 0 W/m 16,7 km/h (3 Bft)
19.10.2014 01:16 15,2 C 13,3 C 94 % 1017,9 hPa 0,0 l/m 0 min 0 min 0 W/m 14,6 km/h (3 Bft)
19.10.2014 01:18 15,2 C 13,3 C 94 % 1017,9 hPa 0,0 l/m 0 min 0 min 0 W/m 8,4 km/h (2 Bft)
19.10.2014 01:20 15,2 C 13,3 C 94 % 1018,0 hPa 0,0 l/m 0 min 0 min 0 W/m 8,4 km/h (2 Bft)
19.10.2014 01:22 15,2 C 13,3 C 94 % 1017,9 hPa 0,0 l/m 0 min 0 min 0 W/m 10,5 km/h (2 Bft)
19.10.2014 01:24 15,2 C 13,3 C 94 % 1017,9 hPa 0,0 l/m 0 min 0 min 0 W/m 10,5 km/h (2 Bft)
19.10.2014 01:26 15,2 C 13,3 C 94 % 1017,8 hPa 0,0 l/m 0 min 0 min 0 W/m 14,6 km/h (3 Bft)
19.10.2014 01:28 15,2 C 13,3 C 94 % 1017,9 hPa 0,0 l/m 0 min 0 min 0 W/m 10,5 km/h (2 Bft)
19.10.2014 01:30 15,1 C 13,3 C 94 % 1017,8 hPa 0,0 l/m 0 min 0 min 0 W/m 12,6 km/h (3 Bft)
19.10.2014 01:32 15,1 C 13,3 C 94 % 1017,8 hPa 0,0 l/m 0 min 0 min 0 W/m 10,5 km/h (2 Bft)
19.10.2014 01:34 15,1 C 13,3 C 94 % 1017,8 hPa 0,0 l/m 0 min 0 min 0 W/m 14,6 km/h (3 Bft)
19.10.2014 01:36 15,1 C 13,3 C 94 % 1017,9 hPa 0,0 l/m 0 min 0 min 0 W/m 12,6 km/h (3 Bft)
19.10.2014 01:38 15,1 C 13,3 C 94 % 1017,9 hPa 0,0 l/m 0 min 0 min 0 W/m 12,6 km/h (3 Bft)
19.10.2014 01:40 15,1 C 13,3 C 94 % 1017,9 hPa 0,0 l/m 0 min 0 min 0 W/m 14,6 km/h (3 Bft)
19.10.2014 01:42 15,1 C 13,3 C 94 % 1017,8 hPa 0,0 l/m 0 min 0 min 0 W/m 12,6 km/h (3 Bft)
19.10.2014 01:44 15,0 C 13,3 C 94 % 1017,8 hPa 0,0 l/m 0 min 0 min 0 W/m 16,7 km/h (3 Bft)
19.10.2014 01:46 15,0 C 13,3 C 94 % 1017,8 hPa 0,0 l/m 0 min 0 min 0 W/m 10,5 km/h (2 Bft)
19.10.2014 01:48 14,9 C 13,3 C 94 % 1017,8 hPa 0,0 l/m 0 min 0 min 0 W/m 10,5 km/h (2 Bft)
19.10.2014 01:50 14,9 C 13,3 C 94 % 1017,9 hPa 0,0 l/m 0 min 0 min 0 W/m 8,4 km/h (2 Bft)
19.10.2014 01:52 14,9 C 13,3 C 94 % 1017,8 hPa 0,0 l/m 0 min 0 min 0 W/m 14,6 km/h (3 Bft)
19.10.2014 01:54 14,9 C 13,3 C 94 % 1017,8 hPa 0,0 l/m 0 min 0 min 0 W/m 10,5 km/h (2 Bft)
19.10.2014 01:56 14,9 C 13,3 C 94 % 1017,9 hPa 0,0 l/m 0 min 0 min 0 W/m 12,6 km/h (3 Bft)
19.10.2014 01:58 14,9 C 13,3 C 94 % 1017,8 hPa 0,0 l/m 0 min 0 min 0 W/m 10,5 km/h (2 Bft)
19.10.2014 02:00 14,8 C 13,3 C 94 % 1017,8 hPa 0,0 l/m 0 min 0 min 0 W/m 10,5 km/h (2 Bft)
19.10.2014 02:02 14,8 C 13,3 C 94 % 1017,8 hPa 0,0 l/m 0 min 0 min 0 W/m 10,5 km/h (2 Bft)
19.10.2014 02:04 14,8 C 13,3 C 94 % 1017,8 hPa 0,0 l/m 0 min 0 min 0 W/m 10,5 km/h (2 Bft)
19.10.2014 02:06 14,8 C 13,3 C 94 % 1017,7 hPa 0,0 l/m 0 min 0 min 0 W/m 12,6 km/h (3 Bft)
19.10.2014 02:08 14,8 C 13,3 C 94 % 1017,7 hPa 0,0 l/m 0 min 0 min 0 W/m 10,5 km/h (2 Bft)
19.10.2014 02:10 14,8 C 13,3 C 95 % 1017,7 hPa 0,0 l/m 0 min 0 min 0 W/m 12,6 km/h (3 Bft)
19.10.2014 02:12 14,8 C 13,3 C 95 % 1017,8 hPa 0,0 l/m 0 min 0 min 0 W/m 10,5 km/h (2 Bft)
19.10.2014 02:14 14,7 C 13,3 C 95 % 1017,8 hPa 0,0 l/m 0 min 0 min 0 W/m 12,6 km/h (3 Bft)
19.10.2014 02:16 14,7 C 13,3 C 94 % 1017,7 hPa 0,0 l/m 0 min 0 min 0 W/m 16,7 km/h (3 Bft)
19.10.2014 02:18 14,7 C 13,3 C 94 % 1017,7 hPa 0,0 l/m 0 min 0 min 0 W/m 14,6 km/h (3 Bft)
19.10.2014 02:20 14,7 C 13,3 C 94 % 1017,7 hPa 0,0 l/m 0 min 0 min 0 W/m 16,7 km/h (3 Bft)
19.10.2014 02:22 14,7 C 13,3 C 95 % 1017,7 hPa 0,0 l/m 0 min 0 min 0 W/m 10,5 km/h (2 Bft)
19.10.2014 02:24 14,7 C 13,3 C 95 % 1017,7 hPa 0,0 l/m 0 min 0 min 0 W/m 10,5 km/h (2 Bft)
19.10.2014 02:26 14,7 C 12,8 C 95 % 1017,7 hPa 0,0 l/m 0 min 0 min 0 W/m 10,5 km/h (2 Bft)
19.10.2014 02:28 14,7 C 13,3 C 95 % 1017,7 hPa 0,0 l/m 0 min 0 min 0 W/m 14,6 km/h (3 Bft)
19.10.2014 02:30 14,6 C 13,3 C 95 % 1017,7 hPa 0,0 l/m 0 min 0 min 0 W/m 18,8 km/h (3 Bft)
19.10.2014 02:32 14,6 C 13,3 C 95 % 1017,7 hPa 0,0 l/m 0 min 0 min 0 W/m 16,7 km/h (3 Bft)
19.10.2014 02:34 14,6 C 13,3 C 95 % 1017,7 hPa 0,0 l/m 0 min 0 min 0 W/m 12,6 km/h (3 Bft)
19.10.2014 02:36 14,6 C 13,3 C 95 % 1017,7 hPa 0,0 l/m 0 min 0 min 0 W/m 14,6 km/h (3 Bft)
19.10.2014 02:38 14,6 C 13,3 C 95 % 1017,7 hPa 0,0 l/m 0 min 0 min 0 W/m 12,6 km/h (3 Bft)
19.10.2014 02:40 14,6 C 13,3 C 95 % 1017,7 hPa 0,0 l/m 0 min 0 min 0 W/m 12,6 km/h (3 Bft)
19.10.2014 02:42 14,6 C 13,3 C 95 % 1017,7 hPa 0,0 l/m 0 min 0 min 0 W/m 16,7 km/h (3 Bft)
19.10.2014 02:44 14,6 C 13,3 C 95 % 1017,6 hPa 0,0 l/m 0 min 0 min 0 W/m 12,6 km/h (3 Bft)
19.10.2014 02:46 14,6 C 13,3 C 95 % 1017,7 hPa 0,0 l/m 0 min 0 min 0 W/m 12,6 km/h (3 Bft)
19.10.2014 02:48 14,6 C 13,3 C 95 % 1017,7 hPa 0,0 l/m 0 min 0 min 0 W/m 12,6 km/h (3 Bft)
19.10.2014 02:50 14,6 C 13,3 C 95 % 1017,7 hPa 0,0 l/m 0 min 0 min 0 W/m 12,6 km/h (3 Bft)
19.10.2014 02:52 14,6 C 13,3 C 95 % 1017,7 hPa 0,0 l/m 0 min 0 min 0 W/m 20,9 km/h (4 Bft)
19.10.2014 02:54 14,6 C 13,3 C 95 % 1017,7 hPa 0,0 l/m 0 min 0 min 0 W/m 16,7 km/h (3 Bft)
19.10.2014 02:56 14,6 C 13,3 C 95 % 1017,7 hPa 0,0 l/m 0 min 0 min 0 W/m 12,6 km/h (3 Bft)
19.10.2014 02:58 14,6 C 13,3 C 95 % 1017,7 hPa 0,0 l/m 0 min 0 min 0 W/m 12,6 km/h (3 Bft)
19.10.2014 03:00 14,6 C 13,3 C 95 % 1017,6 hPa 0,0 l/m 0 min 0 min 0 W/m 14,6 km/h (3 Bft)
19.10.2014 03:02 14,6 C 13,3 C 95 % 1017,7 hPa 0,0 l/m 0 min 0 min 0 W/m 14,6 km/h (3 Bft)
19.10.2014 03:04 14,6 C 13,3 C 95 % 1017,7 hPa 0,0 l/m 0 min 0 min 0 W/m 14,6 km/h (3 Bft)
19.10.2014 03:06 14,6 C 13,3 C 95 % 1017,6 hPa 0,0 l/m 0 min 0 min 0 W/m 12,6 km/h (3 Bft)
19.10.2014 03:08 14,6 C 13,3 C 95 % 1017,6 hPa 0,0 l/m 0 min 0 min 0 W/m 12,6 km/h (3 Bft)
19.10.2014 03:10 14,6 C 13,3 C 96 % 1017,6 hPa 0,0 l/m 0 min 0 min 0 W/m 12,6 km/h (3 Bft)
19.10.2014 03:12 14,6 C 12,8 C 96 % 1017,6 hPa 0,0 l/m 0 min 0 min 0 W/m 10,5 km/h (2 Bft)
19.10.2014 03:14 14,6 C 12,8 C 96 % 1017,5 hPa 0,0 l/m 0 min 0 min 0 W/m 12,6 km/h (3 Bft)
19.10.2014 03:16 14,5 C 12,8 C 96 % 1017,5 hPa 0,0 l/m 0 min 0 min 0 W/m 12,6 km/h (3 Bft)
19.10.2014 03:18 14,5 C 12,8 C 96 % 1017,5 hPa 0,0 l/m 0 min 0 min 0 W/m 10,5 km/h (2 Bft)
19.10.2014 03:20 14,5 C 12,8 C 95 % 1017,5 hPa 0,0 l/m 0 min 0 min 0 W/m 14,6 km/h (3 Bft)
19.10.2014 03:22 14,5 C 12,8 C 95 % 1017,4 hPa 0,0 l/m 0 min 0 min 0 W/m 16,7 km/h (3 Bft)
19.10.2014 03:24 14,4 C 12,8 C 95 % 1017,5 hPa 0,0 l/m 0 min 0 min 0 W/m 14,6 km/h (3 Bft)
19.10.2014 03:26 14,4 C 12,8 C 95 % 1017,4 hPa 0,0 l/m 0 min 0 min 0 W/m 10,5 km/h (2 Bft)
19.10.2014 03:28 14,4 C 12,8 C 95 % 1017,4 hPa 0,0 l/m 0 min 0 min 0 W/m 14,6 km/h (3 Bft)
19.10.2014 03:30 14,4 C 12,8 C 96 % 1017,4 hPa 0,0 l/m 0 min 0 min 0 W/m 12,6 km/h (3 Bft)
19.10.2014 03:32 14,4 C 12,8 C 96 % 1017,4 hPa 0,0 l/m 0 min 0 min 0 W/m 10,5 km/h (2 Bft)
19.10.2014 03:34 14,4 C 12,8 C 96 % 1017,4 hPa 0,0 l/m 0 min 0 min 0 W/m 14,6 km/h (3 Bft)
19.10.2014 03:36 14,4 C 12,8 C 96 % 1017,3 hPa 0,0 l/m 0 min 0 min 0 W/m 18,8 km/h (3 Bft)
19.10.2014 03:38 14,4 C 12,8 C 96 % 1017,3 hPa 0,0 l/m 0 min 0 min 0 W/m 12,6 km/h (3 Bft)
19.10.2014 03:40 14,4 C 12,8 C 96 % 1017,3 hPa 0,0 l/m 0 min 0 min 0 W/m 10,5 km/h (2 Bft)
19.10.2014 03:42 14,4 C 12,8 C 96 % 1017,3 hPa 0,0 l/m 0 min 0 min 0 W/m 14,6 km/h (3 Bft)
19.10.2014 03:44 14,4 C 12,8 C 96 % 1017,3 hPa 0,0 l/m 0 min 0 min 0 W/m 14,6 km/h (3 Bft)
19.10.2014 03:46 14,4 C 12,8 C 96 % 1017,2 hPa 0,0 l/m 0 min 0 min 0 W/m 8,4 km/h (2 Bft)
19.10.2014 03:48 14,3 C 12,8 C 96 % 1017,2 hPa 0,0 l/m 0 min 0 min 0 W/m 14,6 km/h (3 Bft)
19.10.2014 03:50 14,3 C 12,8 C 96 % 1017,2 hPa 0,0 l/m 0 min 0 min 0 W/m 16,7 km/h (3 Bft)
19.10.2014 03:52 14,3 C 12,8 C 96 % 1017,2 hPa 0,0 l/m 0 min 0 min 0 W/m 14,6 km/h (3 Bft)
19.10.2014 03:54 14,3 C 12,8 C 96 % 1017,1 hPa 0,0 l/m 0 min 0 min 0 W/m 14,6 km/h (3 Bft)
19.10.2014 03:56 14,3 C 12,8 C 96 % 1017,1 hPa 0,0 l/m 0 min 0 min 0 W/m 16,7 km/h (3 Bft)
19.10.2014 03:58 14,3 C 12,8 C 96 % 1017,1 hPa 0,0 l/m 0 min 0 min 0 W/m 14,6 km/h (3 Bft)
19.10.2014 04:00 14,3 C 12,8 C 96 % 1017,1 hPa 0,0 l/m 0 min 0 min 0 W/m 14,6 km/h (3 Bft)
19.10.2014 04:02 14,3 C 12,8 C 96 % 1017,1 hPa 0,0 l/m 0 min 0 min 0 W/m 12,6 km/h (3 Bft)
19.10.2014 04:04 14,3 C 12,8 C 96 % 1017,1 hPa 0,0 l/m 0 min 0 min 0 W/m 18,8 km/h (3 Bft)
19.10.2014 04:06 14,2 C 12,8 C 96 % 1017,0 hPa 0,0 l/m 0 min 0 min 0 W/m 14,6 km/h (3 Bft)
19.10.2014 04:08 14,2 C 12,8 C 96 % 1017,0 hPa 0,0 l/m 0 min 0 min 0 W/m 14,6 km/h (3 Bft)
19.10.2014 04:10 14,2 C 12,8 C 96 % 1016,9 hPa 0,0 l/m 0 min 0 min 0 W/m 18,8 km/h (3 Bft)
19.10.2014 04:12 14,2 C 12,8 C 96 % 1017,0 hPa 0,0 l/m 0 min 0 min 0 W/m 12,6 km/h (3 Bft)
19.10.2014 04:14 14,2 C 12,8 C 96 % 1017,0 hPa 0,0 l/m 0 min 0 min 0 W/m 16,7 km/h (3 Bft)
19.10.2014 04:16 14,2 C 12,8 C 96 % 1017,0 hPa 0,0 l/m 0 min 0 min 0 W/m 14,6 km/h (3 Bft)
19.10.2014 04:18 14,2 C 12,8 C 96 % 1017,0 hPa 0,0 l/m 0 min 0 min 0 W/m 14,6 km/h (3 Bft)
19.10.2014 04:20 14,2 C 12,8 C 96 % 1017,0 hPa 0,0 l/m 0 min 0 min 0 W/m 14,6 km/h (3 Bft)
19.10.2014 04:22 14,2 C 12,8 C 96 % 1016,9 hPa 0,0 l/m 0 min 0 min 0 W/m 14,6 km/h (3 Bft)
19.10.2014 04:24 14,2 C 12,8 C 96 % 1016,9 hPa 0,0 l/m 0 min 0 min 0 W/m 16,7 km/h (3 Bft)
19.10.2014 04:26 14,2 C 12,8 C 96 % 1016,9 hPa 0,0 l/m 0 min 0 min 0 W/m 12,6 km/h (3 Bft)
19.10.2014 04:28 14,2 C 12,8 C 96 % 1016,8 hPa 0,0 l/m 0 min 0 min 0 W/m 16,7 km/h (3 Bft)
19.10.2014 04:30 14,2 C 12,8 C 96 % 1016,8 hPa 0,0 l/m 0 min 0 min 0 W/m 16,7 km/h (3 Bft)
19.10.2014 04:32 14,2 C 12,8 C 96 % 1016,9 hPa 0,0 l/m 0 min 0 min 0 W/m 14,6 km/h (3 Bft)
19.10.2014 04:34 14,2 C 12,8 C 96 % 1016,8 hPa 0,0 l/m 0 min 0 min 0 W/m 14,6 km/h (3 Bft)
19.10.2014 04:36 14,2 C 12,8 C 96 % 1016,8 hPa 0,0 l/m 0 min 0 min 0 W/m 14,6 km/h (3 Bft)
19.10.2014 04:38 14,2 C 12,8 C 96 % 1016,8 hPa 0,0 l/m 0 min 0 min 0 W/m 12,6 km/h (3 Bft)
19.10.2014 04:40 14,2 C 12,8 C 96 % 1016,8 hPa 0,0 l/m 0 min 0 min 0 W/m 14,6 km/h (3 Bft)
19.10.2014 04:42 14,2 C 12,8 C 96 % 1016,8 hPa 0,0 l/m 0 min 0 min 0 W/m 16,7 km/h (3 Bft)
19.10.2014 04:44 14,2 C 12,8 C 96 % 1016,9 hPa 0,0 l/m 0 min 0 min 0 W/m 18,8 km/h (3 Bft)
19.10.2014 04:46 14,2 C 12,8 C 96 % 1016,9 hPa 0,0 l/m 0 min 0 min 0 W/m 14,6 km/h (3 Bft)
19.10.2014 04:48 14,2 C 12,8 C 96 % 1016,8 hPa 0,0 l/m 0 min 0 min 0 W/m 16,7 km/h (3 Bft)
19.10.2014 04:50 14,2 C 12,8 C 96 % 1016,9 hPa 0,0 l/m 0 min 0 min 0 W/m 12,6 km/h (3 Bft)
19.10.2014 04:52 14,2 C 12,8 C 96 % 1017,0 hPa 0,0 l/m 0 min 0 min 0 W/m 14,6 km/h (3 Bft)
19.10.2014 04:54 14,2 C 12,8 C 96 % 1016,9 hPa 0,0 l/m 0 min 0 min 0 W/m 10,5 km/h (2 Bft)
19.10.2014 04:56 14,2 C 12,8 C 96 % 1016,9 hPa 0,0 l/m 0 min 0 min 0 W/m 14,6 km/h (3 Bft)
19.10.2014 04:58 14,2 C 12,8 C 96 % 1016,9 hPa 0,0 l/m 0 min 0 min 0 W/m 10,5 km/h (2 Bft)
19.10.2014 05:00 14,2 C 12,8 C 96 % 1016,8 hPa 0,0 l/m 0 min 0 min 0 W/m 14,6 km/h (3 Bft)
19.10.2014 05:02 14,2 C 12,8 C 96 % 1016,8 hPa 0,0 l/m 0 min 0 min 0 W/m 16,7 km/h (3 Bft)
19.10.2014 05:04 14,2 C 12,8 C 96 % 1016,8 hPa 0,0 l/m 0 min 0 min 0 W/m 10,5 km/h (2 Bft)
19.10.2014 05:06 14,2 C 12,8 C 96 % 1016,8 hPa 0,0 l/m 0 min 0 min 0 W/m 14,6 km/h (3 Bft)
19.10.2014 05:08 14,1 C 12,8 C 96 % 1016,8 hPa 0,0 l/m 0 min 0 min 0 W/m 14,6 km/h (3 Bft)
19.10.2014 05:10 14,1 C 12,8 C 96 % 1016,8 hPa 0,0 l/m 0 min 0 min 0 W/m 10,5 km/h (2 Bft)
19.10.2014 05:12 14,1 C 12,8 C 96 % 1016,7 hPa 0,0 l/m 0 min 0 min 0 W/m 12,6 km/h (3 Bft)
19.10.2014 05:14 14,1 C 12,8 C 96 % 1016,7 hPa 0,0 l/m 0 min 0 min 0 W/m 10,5 km/h (2 Bft)
19.10.2014 05:16 14,0 C 12,8 C 96 % 1016,6 hPa 0,0 l/m 0 min 0 min 0 W/m 10,5 km/h (2 Bft)
19.10.2014 05:18 14,0 C 12,2 C 96 % 1016,6 hPa 0,0 l/m 0 min 0 min 0 W/m 14,6 km/h (3 Bft)
19.10.2014 05:20 14,0 C 12,2 C 96 % 1016,6 hPa 0,0 l/m 0 min 0 min 0 W/m 14,6 km/h (3 Bft)
19.10.2014 05:22 14,0 C 12,2 C 96 % 1016,5 hPa 0,0 l/m 0 min 0 min 0 W/m 10,5 km/h (2 Bft)
19.10.2014 05:24 14,0 C 12,2 C 96 % 1016,6 hPa 0,0 l/m 0 min 0 min 0 W/m 14,6 km/h (3 Bft)
19.10.2014 05:26 13,9 C 12,2 C 97 % 1016,6 hPa 0,0 l/m 0 min 0 min 0 W/m 14,6 km/h (3 Bft)
19.10.2014 05:28 13,9 C 12,2 C 97 % 1016,7 hPa 0,0 l/m 0 min 0 min 0 W/m 10,5 km/h (2 Bft)
19.10.2014 05:30 13,9 C 12,2 C 97 % 1016,6 hPa 0,0 l/m 0 min 0 min 0 W/m 10,5 km/h (2 Bft)
19.10.2014 05:32 13,9 C 12,2 C 97 % 1016,6 hPa 0,0 l/m 0 min 0 min 0 W/m 12,6 km/h (3 Bft)
19.10.2014 05:34 13,9 C 12,2 C 97 % 1016,6 hPa 0,0 l/m 0 min 0 min 0 W/m 12,6 km/h (3 Bft)
19.10.2014 05:36 13,9 C 12,2 C 97 % 1016,6 hPa 0,0 l/m 0 min 0 min 0 W/m 10,5 km/h (2 Bft)
19.10.2014 05:38 13,8 C 12,2 C 96 % 1016,6 hPa 0,0 l/m 0 min 0 min 0 W/m 14,6 km/h (3 Bft)
19.10.2014 05:40 13,8 C 12,2 C 96 % 1016,6 hPa 0,0 l/m 0 min 0 min 0 W/m 8,4 km/h (2 Bft)
19.10.2014 05:42 13,8 C 12,2 C 96 % 1016,6 hPa 0,0 l/m 0 min 0 min 0 W/m 10,5 km/h (2 Bft)
19.10.2014 05:44 13,8 C 12,2 C 96 % 1016,5 hPa 0,0 l/m 0 min 0 min 0 W/m 14,6 km/h (3 Bft)
19.10.2014 05:46 13,8 C 12,2 C 96 % 1016,5 hPa 0,0 l/m 0 min 0 min 0 W/m 12,6 km/h (3 Bft)
19.10.2014 05:48 13,7 C 12,2 C 96 % 1016,6 hPa 0,0 l/m 0 min 0 min 0 W/m 8,4 km/h (2 Bft)
19.10.2014 05:50 13,7 C 12,2 C 96 % 1016,5 hPa 0,0 l/m 0 min 0 min 0 W/m 12,6 km/h (3 Bft)
19.10.2014 05:52 13,7 C 12,2 C 97 % 1016,5 hPa 0,0 l/m 0 min 0 min 0 W/m 8,4 km/h (2 Bft)
19.10.2014 05:54 13,7 C 12,2 C 97 % 1016,6 hPa 0,0 l/m 0 min 0 min 0 W/m 8,4 km/h (2 Bft)
19.10.2014 05:56 13,7 C 12,2 C 97 % 1016,5 hPa 0,0 l/m 0 min 0 min 0 W/m 10,5 km/h (2 Bft)
19.10.2014 05:58 13,7 C 12,2 C 97 % 1016,6 hPa 0,0 l/m 0 min 0 min 0 W/m 10,5 km/h (2 Bft)
19.10.2014 06:00 13,7 C 12,2 C 97 % 1016,6 hPa 0,0 l/m 0 min 0 min 0 W/m 10,5 km/h (2 Bft)
19.10.2014 06:02 13,7 C 12,2 C 97 % 1016,5 hPa 0,0 l/m 0 min 0 min 0 W/m 12,6 km/h (3 Bft)
19.10.2014 06:06 13,7 C 12,2 C 97 % 1016,5 hPa 0,0 l/m 0 min 0 min 0 W/m 12,6 km/h (3 Bft)
19.10.2014 06:08 13,7 C 12,2 C 97 % 1016,5 hPa 0,0 l/m 0 min 0 min 0 W/m 12,6 km/h (3 Bft)
19.10.2014 06:10 13,7 C 12,2 C 97 % 1016,5 hPa 0,0 l/m 0 min 0 min 0 W/m 12,6 km/h (3 Bft)
19.10.2014 06:12 13,7 C 12,2 C 97 % 1016,5 hPa 0,0 l/m 0 min 0 min 0 W/m 12,6 km/h (3 Bft)
19.10.2014 06:14 13,7 C 12,2 C 97 % 1016,5 hPa 0,0 l/m 0 min 0 min 0 W/m 12,6 km/h (3 Bft)
19.10.2014 06:16 13,7 C 12,2 C 97 % 1016,5 hPa 0,0 l/m 0 min 0 min 0 W/m 10,5 km/h (2 Bft)
19.10.2014 06:18 13,7 C 12,2 C 97 % 1016,5 hPa 0,0 l/m 0 min 0 min 0 W/m 6,3 km/h (2 Bft)
19.10.2014 06:20 13,7 C 12,2 C 97 % 1016,5 hPa 0,0 l/m 0 min 0 min 0 W/m 12,6 km/h (3 Bft)
19.10.2014 06:22 13,7 C 12,2 C 97 % 1016,5 hPa 0,0 l/m 0 min 0 min 0 W/m 8,4 km/h (2 Bft)
19.10.2014 06:24 13,7 C 12,2 C 97 % 1016,5 hPa 0,0 l/m 0 min 0 min 0 W/m 10,5 km/h (2 Bft)
19.10.2014 06:26 13,6 C 12,2 C 97 % 1016,5 hPa 0,0 l/m 0 min 0 min 0 W/m 8,4 km/h (2 Bft)
19.10.2014 06:28 13,6 C 12,2 C 97 % 1016,5 hPa 0,0 l/m 0 min 0 min 0 W/m 6,3 km/h (2 Bft)
19.10.2014 06:30 13,6 C 12,2 C 97 % 1016,5 hPa 0,0 l/m 0 min 0 min 0 W/m 10,5 km/h (2 Bft)
19.10.2014 06:32 13,6 C 12,2 C 97 % 1016,4 hPa 0,0 l/m 0 min 0 min 0 W/m 10,5 km/h (2 Bft)
19.10.2014 06:34 13,6 C 12,2 C 97 % 1016,4 hPa 0,0 l/m 0 min 0 min 0 W/m 12,6 km/h (3 Bft)
19.10.2014 06:36 13,6 C 12,2 C 97 % 1016,4 hPa 0,0 l/m 0 min 0 min 0 W/m 8,4 km/h (2 Bft)
19.10.2014 06:38 13,6 C 12,2 C 97 % 1016,4 hPa 0,0 l/m 0 min 0 min 0 W/m 8,4 km/h (2 Bft)
19.10.2014 06:40 13,6 C 12,2 C 97 % 1016,4 hPa 0,0 l/m 0 min 0 min 0 W/m 8,4 km/h (2 Bft)
19.10.2014 06:42 13,6 C 12,2 C 97 % 1016,3 hPa 0,0 l/m 0 min 0 min 0 W/m 10,5 km/h (2 Bft)
19.10.2014 06:44 13,6 C 12,2 C 97 % 1016,2 hPa 0,0 l/m 0 min 0 min 0 W/m 8,4 km/h (2 Bft)
19.10.2014 06:46 13,6 C 12,2 C 97 % 1016,3 hPa 0,0 l/m 0 min 0 min 0 W/m 10,5 km/h (2 Bft)
19.10.2014 06:48 13,5 C 12,2 C 97 % 1016,3 hPa 0,0 l/m 0 min 0 min 0 W/m 8,4 km/h (2 Bft)
19.10.2014 06:50 13,5 C 12,2 C 97 % 1016,2 hPa 0,0 l/m 0 min 0 min 0 W/m 10,5 km/h (2 Bft)
19.10.2014 06:52 13,5 C 12,2 C 97 % 1016,2 hPa 0,0 l/m 0 min 0 min 0 W/m 10,5 km/h (2 Bft)
19.10.2014 06:54 13,5 C 12,2 C 97 % 1016,1 hPa 0,0 l/m 0 min 0 min 0 W/m 12,6 km/h (3 Bft)
19.10.2014 06:56 13,5 C 12,2 C 97 % 1016,1 hPa 0,0 l/m 0 min 0 min 0 W/m 10,5 km/h (2 Bft)
19.10.2014 06:58 13,4 C 12,2 C 97 % 1016,1 hPa 0,0 l/m 0 min 0 min 0 W/m 8,4 km/h (2 Bft)
19.10.2014 07:00 13,4 C 12,2 C 97 % 1016,1 hPa 0,0 l/m 0 min 0 min 0 W/m 12,6 km/h (3 Bft)
19.10.2014 07:02 13,4 C 12,2 C 97 % 1016,1 hPa 0,0 l/m 0 min 0 min 0 W/m 10,5 km/h (2 Bft)
19.10.2014 07:04 13,4 C 12,2 C 97 % 1016,0 hPa 0,0 l/m 0 min 0 min 0 W/m 10,5 km/h (2 Bft)
19.10.2014 07:06 13,4 C 12,2 C 97 % 1016,1 hPa 0,0 l/m 0 min 0 min 0 W/m 10,5 km/h (2 Bft)
19.10.2014 07:08 13,4 C 12,2 C 97 % 1016,0 hPa 0,0 l/m 0 min 0 min 0 W/m 8,4 km/h (2 Bft)
19.10.2014 07:10 13,4 C 12,2 C 97 % 1016,0 hPa 0,0 l/m 0 min 0 min 0 W/m 10,5 km/h (2 Bft)
19.10.2014 07:12 13,4 C 12,2 C 97 % 1016,0 hPa 0,0 l/m 0 min 0 min 0 W/m 8,4 km/h (2 Bft)
19.10.2014 07:14 13,4 C 12,2 C 97 % 1016,0 hPa 0,0 l/m 0 min 0 min 0 W/m 8,4 km/h (2 Bft)
19.10.2014 07:16 13,4 C 12,2 C 97 % 1016,0 hPa 0,0 l/m 0 min 0 min 0 W/m 10,5 km/h (2 Bft)
19.10.2014 07:18 13,4 C 12,2 C 97 % 1016,0 hPa 0,0 l/m 0 min 0 min 0 W/m 10,5 km/h (2 Bft)
19.10.2014 07:20 13,4 C 11,7 C 97 % 1016,1 hPa 0,0 l/m 0 min 0 min 0 W/m 10,5 km/h (2 Bft)
19.10.2014 07:22 13,4 C 11,7 C 97 % 1016,0 hPa 0,0 l/m 0 min 0 min 0 W/m 10,5 km/h (2 Bft)
19.10.2014 07:24 13,3 C 12,2 C 97 % 1016,0 hPa 0,0 l/m 0 min 0 min 0 W/m 8,4 km/h (2 Bft)
19.10.2014 07:26 13,4 C 11,7 C 97 % 1016,0 hPa 0,0 l/m 0 min 0 min 0 W/m 6,3 km/h (2 Bft)
19.10.2014 07:28 13,3 C 11,7 C 97 % 1015,9 hPa 0,0 l/m 0 min 0 min 0 W/m 6,3 km/h (2 Bft)
19.10.2014 07:30 13,3 C 12,2 C 97 % 1015,9 hPa 0,0 l/m 0 min 0 min 0 W/m 10,5 km/h (2 Bft)
19.10.2014 07:32 13,3 C 12,2 C 97 % 1015,9 hPa 0,0 l/m 0 min 0 min 0 W/m 10,5 km/h (2 Bft)
19.10.2014 07:34 13,3 C 11,7 C 97 % 1015,8 hPa 0,0 l/m 0 min 0 min 0 W/m 8,4 km/h (2 Bft)
19.10.2014 07:36 13,3 C 11,7 C 97 % 1015,8 hPa 0,0 l/m 0 min 0 min 0 W/m 6,3 km/h (2 Bft)
19.10.2014 07:38 13,3 C 11,7 C 97 % 1015,8 hPa 0,0 l/m 0 min 0 min 0 W/m 10,5 km/h (2 Bft)
19.10.2014 07:40 13,3 C 11,7 C 97 % 1015,7 hPa 0,0 l/m 0 min 0 min 0 W/m 6,3 km/h (2 Bft)
19.10.2014 07:42 13,3 C 11,7 C 97 % 1015,7 hPa 0,0 l/m 0 min 0 min 0 W/m 10,5 km/h (2 Bft)
19.10.2014 07:44 13,3 C 11,7 C 97 % 1015,8 hPa 0,0 l/m 0 min 0 min 0 W/m 12,6 km/h (3 Bft)
19.10.2014 07:46 13,3 C 11,7 C 97 % 1015,7 hPa 0,0 l/m 0 min 0 min 0 W/m 10,5 km/h (2 Bft)
19.10.2014 07:48 13,3 C 11,7 C 97 % 1015,8 hPa 0,0 l/m 0 min 0 min 0 W/m 12,6 km/h (3 Bft)
19.10.2014 07:50 13,3 C 11,7 C 97 % 1015,7 hPa 0,0 l/m 0 min 0 min 0 W/m 12,6 km/h (3 Bft)
19.10.2014 07:52 13,2 C 11,7 C 97 % 1015,8 hPa 0,0 l/m 0 min 0 min 0 W/m 8,4 km/h (2 Bft)
19.10.2014 07:54 13,2 C 11,7 C 97 % 1015,8 hPa 0,0 l/m 0 min 0 min 0 W/m 10,5 km/h (2 Bft)
19.10.2014 07:56 13,2 C 12,2 C 97 % 1015,8 hPa 0,0 l/m 0 min 0 min 0 W/m 10,5 km/h (2 Bft)
19.10.2014 07:58 13,2 C 12,2 C 97 % 1015,8 hPa 0,0 l/m 0 min 0 min 0 W/m 10,5 km/h (2 Bft)
19.10.2014 08:00 13,2 C 11,7 C 97 % 1015,8 hPa 0,0 l/m 0 min 0 min 4 W/m 10,5 km/h (2 Bft)
19.10.2014 08:02 13,2 C 12,2 C 97 % 1015,8 hPa 0,0 l/m 0 min 0 min 5 W/m 10,5 km/h (2 Bft)
19.10.2014 08:04 13,3 C 12,2 C 97 % 1015,8 hPa 0,0 l/m 0 min 0 min 5 W/m 10,5 km/h (2 Bft)
19.10.2014 08:06 13,3 C 12,2 C 97 % 1015,8 hPa 0,0 l/m 0 min 0 min 6 W/m 12,6 km/h (3 Bft)
19.10.2014 08:08 13,3 C 12,2 C 97 % 1015,8 hPa 0,0 l/m 0 min 0 min 7 W/m 12,6 km/h (3 Bft)
19.10.2014 08:10 13,3 C 12,2 C 97 % 1015,8 hPa 0,0 l/m 0 min 0 min 9 W/m 10,5 km/h (2 Bft)
19.10.2014 08:12 13,3 C 12,2 C 97 % 1015,8 hPa 0,0 l/m 0 min 0 min 9 W/m 12,6 km/h (3 Bft)
19.10.2014 08:14 13,3 C 12,2 C 97 % 1015,9 hPa 0,0 l/m 0 min 0 min 11 W/m 10,5 km/h (2 Bft)
19.10.2014 08:16 13,3 C 12,2 C 97 % 1015,9 hPa 0,0 l/m 0 min 0 min 11 W/m 10,5 km/h (2 Bft)
19.10.2014 08:18 13,3 C 12,2 C 97 % 1015,8 hPa 0,0 l/m 0 min 0 min 12 W/m 10,5 km/h (2 Bft)
19.10.2014 08:20 13,3 C 12,2 C 97 % 1015,8 hPa 0,0 l/m 2 min 0 min 14 W/m 10,5 km/h (2 Bft)
19.10.2014 08:22 13,3 C 12,2 C 97 % 1015,8 hPa 0,0 l/m 2 min 0 min 16 W/m 8,4 km/h (2 Bft)
19.10.2014 08:24 13,3 C 12,2 C 97 % 1015,8 hPa 0,0 l/m 2 min 0 min 18 W/m 12,6 km/h (3 Bft)
19.10.2014 08:26 13,3 C 12,2 C 97 % 1015,8 hPa 0,0 l/m 2 min 0 min 21 W/m 10,5 km/h (2 Bft)
19.10.2014 08:28 13,3 C 12,2 C 97 % 1015,8 hPa 0,0 l/m 2 min 0 min 24 W/m 10,5 km/h (2 Bft)
19.10.2014 08:30 13,3 C 12,2 C 97 % 1015,9 hPa 0,0 l/m 2 min 0 min 28 W/m 10,5 km/h (2 Bft)
19.10.2014 08:32 13,3 C 12,2 C 97 % 1015,9 hPa 0,0 l/m 2 min 0 min 31 W/m 8,4 km/h (2 Bft)
19.10.2014 08:34 13,3 C 12,2 C 97 % 1015,8 hPa 0,0 l/m 2 min 0 min 35 W/m 14,6 km/h (3 Bft)
19.10.2014 08:36 13,3 C 12,2 C 97 % 1015,9 hPa 0,0 l/m 2 min 0 min 39 W/m 8,4 km/h (2 Bft)
19.10.2014 08:38 13,3 C 12,2 C 97 % 1015,9 hPa 0,0 l/m 2 min 0 min 43 W/m 8,4 km/h (2 Bft)
19.10.2014 08:40 13,3 C 12,2 C 97 % 1015,9 hPa 0,0 l/m 2 min 0 min 47 W/m 10,5 km/h (2 Bft)
19.10.2014 08:42 13,3 C 12,2 C 98 % 1015,9 hPa 0,0 l/m 2 min 0 min 51 W/m 10,5 km/h (2 Bft)
19.10.2014 08:44 13,3 C 12,2 C 98 % 1015,9 hPa 0,0 l/m 2 min 0 min 55 W/m 16,7 km/h (3 Bft)
19.10.2014 08:46 13,3 C 12,2 C 98 % 1015,9 hPa 0,0 l/m 2 min 0 min 60 W/m 10,5 km/h (2 Bft)
19.10.2014 08:48 13,3 C 12,2 C 98 % 1016,0 hPa 0,0 l/m 2 min 0 min 64 W/m 8,4 km/h (2 Bft)
19.10.2014 08:50 13,3 C 12,2 C 98 % 1016,0 hPa 0,0 l/m 2 min 0 min 67 W/m 10,5 km/h (2 Bft)
19.10.2014 08:52 13,3 C 12,2 C 98 % 1016,0 hPa 0,0 l/m 2 min 0 min 73 W/m 14,6 km/h (3 Bft)
19.10.2014 08:54 13,3 C 12,2 C 98 % 1016,0 hPa 0,0 l/m 2 min 0 min 77 W/m 10,5 km/h (2 Bft)
19.10.2014 08:56 13,3 C 12,2 C 98 % 1016,0 hPa 0,0 l/m 2 min 0 min 82 W/m 12,6 km/h (3 Bft)
19.10.2014 08:58 13,4 C 12,2 C 98 % 1016,0 hPa 0,0 l/m 2 min 0 min 85 W/m 8,4 km/h (2 Bft)
19.10.2014 09:00 13,4 C 12,2 C 98 % 1015,9 hPa 0,0 l/m 2 min 0 min 90 W/m 6,3 km/h (2 Bft)
19.10.2014 09:02 13,4 C 12,2 C 98 % 1015,9 hPa 0,0 l/m 2 min 0 min 94 W/m 8,4 km/h (2 Bft)
19.10.2014 09:04 13,4 C 12,2 C 98 % 1015,9 hPa 0,0 l/m 2 min 0 min 98 W/m 8,4 km/h (2 Bft)
19.10.2014 09:06 13,4 C 12,2 C 98 % 1015,9 hPa 0,0 l/m 2 min 0 min 102 W/m 10,5 km/h (2 Bft)
19.10.2014 09:08 13,4 C 12,2 C 98 % 1015,9 hPa 0,0 l/m 2 min 0 min 105 W/m 12,6 km/h (3 Bft)
19.10.2014 09:10 13,4 C 12,2 C 98 % 1015,9 hPa 0,0 l/m 2 min 0 min 111 W/m 10,5 km/h (2 Bft)
19.10.2014 09:12 13,4 C 12,8 C 98 % 1015,8 hPa 0,0 l/m 2 min 0 min 115 W/m 10,5 km/h (2 Bft)
19.10.2014 09:14 13,5 C 12,8 C 98 % 1015,8 hPa 0,0 l/m 2 min 0 min 117 W/m 14,6 km/h (3 Bft)
19.10.2014 09:16 13,5 C 12,8 C 98 % 1015,8 hPa 0,0 l/m 2 min 0 min 122 W/m 8,4 km/h (2 Bft)
19.10.2014 09:18 13,5 C 12,8 C 98 % 1015,8 hPa 0,0 l/m 2 min 0 min 126 W/m 10,5 km/h (2 Bft)
19.10.2014 09:20 13,6 C 12,8 C 98 % 1015,8 hPa 0,0 l/m 2 min 0 min 129 W/m 10,5 km/h (2 Bft)
19.10.2014 09:22 13,6 C 12,8 C 98 % 1015,8 hPa 0,0 l/m 2 min 0 min 134 W/m 10,5 km/h (2 Bft)
19.10.2014 09:24 13,6 C 12,8 C 98 % 1015,8 hPa 0,0 l/m 2 min 0 min 138 W/m 10,5 km/h (2 Bft)
19.10.2014 09:26 13,6 C 12,8 C 98 % 1015,8 hPa 0,0 l/m 2 min 0 min 142 W/m 10,5 km/h (2 Bft)
19.10.2014 09:28 13,7 C 12,8 C 98 % 1015,8 hPa 0,0 l/m 2 min 0 min 147 W/m 8,4 km/h (2 Bft)
19.10.2014 09:30 13,7 C 12,8 C 98 % 1015,9 hPa 0,0 l/m 2 min 0 min 153 W/m 6,3 km/h (2 Bft)
19.10.2014 09:32 13,7 C 12,8 C 98 % 1015,9 hPa 0,0 l/m 2 min 0 min 158 W/m 8,4 km/h (2 Bft)
19.10.2014 09:34 13,8 C 12,8 C 98 % 1015,9 hPa 0,0 l/m 2 min 0 min 163 W/m 8,4 km/h (2 Bft)
19.10.2014 09:36 13,8 C 13,3 C 98 % 1015,8 hPa 0,0 l/m 2 min 0 min 169 W/m 10,5 km/h (2 Bft)
19.10.2014 09:38 13,8 C 13,3 C 98 % 1015,9 hPa 0,0 l/m 2 min 0 min 176 W/m 10,5 km/h (2 Bft)
19.10.2014 09:40 13,9 C 13,3 C 98 % 1015,9 hPa 0,0 l/m 2 min 0 min 180 W/m 12,6 km/h (3 Bft)
19.10.2014 09:42 13,9 C 13,3 C 98 % 1015,9 hPa 0,0 l/m 2 min 0 min 185 W/m 14,6 km/h (3 Bft)
19.10.2014 09:44 14,0 C 13,3 C 98 % 1015,8 hPa 0,0 l/m 2 min 0 min 192 W/m 16,7 km/h (3 Bft)
19.10.2014 09:46 14,1 C 13,3 C 98 % 1015,8 hPa 0,0 l/m 2 min 0 min 197 W/m 12,6 km/h (3 Bft)
19.10.2014 09:48 14,1 C 13,3 C 98 % 1015,9 hPa 0,0 l/m 2 min 0 min 203 W/m 10,5 km/h (2 Bft)
19.10.2014 09:50 14,2 C 13,3 C 98 % 1015,8 hPa 0,0 l/m 2 min 0 min 207 W/m 10,5 km/h (2 Bft)
19.10.2014 09:52 14,2 C 13,3 C 98 % 1015,8 hPa 0,0 l/m 2 min 0 min 213 W/m 12,6 km/h (3 Bft)
19.10.2014 09:54 14,2 C 13,9 C 98 % 1015,7 hPa 0,0 l/m 2 min 0 min 219 W/m 14,6 km/h (3 Bft)
19.10.2014 09:56 14,3 C 13,9 C 98 % 1015,8 hPa 0,0 l/m 2 min 0 min 224 W/m 16,7 km/h (3 Bft)
19.10.2014 09:58 14,4 C 13,9 C 98 % 1015,7 hPa 0,0 l/m 2 min 0 min 229 W/m 16,7 km/h (3 Bft)
19.10.2014 10:00 14,4 C 13,9 C 98 % 1015,7 hPa 0,0 l/m 2 min 0 min 235 W/m 14,6 km/h (3 Bft)
19.10.2014 10:02 14,6 C 13,9 C 98 % 1015,8 hPa 0,0 l/m 2 min 0 min 239 W/m 14,6 km/h (3 Bft)
19.10.2014 10:04 14,7 C 13,9 C 99 % 1015,7 hPa 0,0 l/m 2 min 0 min 244 W/m 14,6 km/h (3 Bft)
19.10.2014 10:06 14,8 C 13,9 C 98 % 1015,7 hPa 0,0 l/m 2 min 0 min 249 W/m 14,6 km/h (3 Bft)
19.10.2014 10:08 14,9 C 13,9 C 98 % 1015,7 hPa 0,0 l/m 2 min 0 min 254 W/m 16,7 km/h (3 Bft)
19.10.2014 10:10 15,0 C 13,9 C 99 % 1015,7 hPa 0,0 l/m 2 min 0 min 259 W/m 14,6 km/h (3 Bft)
19.10.2014 10:12 15,1 C 14,4 C 99 % 1015,7 hPa 0,0 l/m 2 min 0 min 263 W/m 10,5 km/h (2 Bft)
19.10.2014 10:14 15,2 C 14,4 C 99 % 1015,6 hPa 0,0 l/m 2 min 0 min 267 W/m 10,5 km/h (2 Bft)
19.10.2014 10:16 15,4 C 14,4 C 99 % 1015,6 hPa 0,0 l/m 2 min 0 min 271 W/m 10,5 km/h (2 Bft)
19.10.2014 10:18 15,5 C 14,4 C 99 % 1015,6 hPa 0,0 l/m 2 min 0 min 276 W/m 6,3 km/h (2 Bft)
19.10.2014 10:20 15,6 C 14,4 C 99 % 1015,7 hPa 0,0 l/m 2 min 0 min 279 W/m 14,6 km/h (3 Bft)
19.10.2014 10:22 15,7 C 15,0 C 99 % 1015,6 hPa 0,0 l/m 2 min 0 min 284 W/m 10,5 km/h (2 Bft)
19.10.2014 10:24 15,9 C 15,0 C 99 % 1015,6 hPa 0,0 l/m 2 min 0 min 288 W/m 10,5 km/h (2 Bft)
19.10.2014 10:26 16,0 C 15,0 C 99 % 1015,6 hPa 0,0 l/m 2 min 0 min 293 W/m 8,4 km/h (2 Bft)
19.10.2014 10:28 16,2 C 15,0 C 99 % 1015,6 hPa 0,0 l/m 2 min 0 min 296 W/m 8,4 km/h (2 Bft)
19.10.2014 10:30 16,3 C 15,0 C 99 % 1015,6 hPa 0,0 l/m 2 min 0 min 300 W/m 12,6 km/h (3 Bft)
19.10.2014 10:32 16,4 C 15,6 C 99 % 1015,7 hPa 0,0 l/m 2 min 0 min 304 W/m 10,5 km/h (2 Bft)
19.10.2014 10:34 16,5 C 15,6 C 99 % 1015,7 hPa 0,0 l/m 2 min 0 min 308 W/m 8,4 km/h (2 Bft)
19.10.2014 10:36 16,6 C 15,6 C 99 % 1015,7 hPa 0,0 l/m 2 min 0 min 312 W/m 14,6 km/h (3 Bft)
19.10.2014 10:38 16,7 C 15,6 C 99 % 1015,6 hPa 0,0 l/m 2 min 0 min 316 W/m 12,6 km/h (3 Bft)
19.10.2014 10:40 16,9 C 15,6 C 99 % 1015,6 hPa 0,0 l/m 2 min 0 min 321 W/m 14,6 km/h (3 Bft)
19.10.2014 10:42 17,0 C 15,6 C 99 % 1015,6 hPa 0,0 l/m 2 min 0 min 324 W/m 12,6 km/h (3 Bft)
19.10.2014 10:44 17,1 C 16,1 C 99 % 1015,6 hPa 0,0 l/m 2 min 0 min 328 W/m 16,7 km/h (3 Bft)
19.10.2014 10:46 17,2 C 16,1 C 99 % 1015,6 hPa 0,0 l/m 2 min 0 min 331 W/m 18,8 km/h (3 Bft)
19.10.2014 10:48 17,3 C 16,1 C 99 % 1015,7 hPa 0,0 l/m 2 min 0 min 335 W/m 18,8 km/h (3 Bft)
19.10.2014 10:50 17,4 C 16,1 C 99 % 1015,6 hPa 0,0 l/m 2 min 0 min 339 W/m 12,6 km/h (3 Bft)
19.10.2014 10:52 17,5 C 16,1 C 99 % 1015,6 hPa 0,0 l/m 2 min 0 min 342 W/m 16,7 km/h (3 Bft)
19.10.2014 10:54 17,6 C 16,7 C 99 % 1015,6 hPa 0,0 l/m 2 min 0 min 343 W/m 10,5 km/h (2 Bft)
19.10.2014 10:56 17,7 C 16,7 C 98 % 1015,6 hPa 0,0 l/m 2 min 0 min 346 W/m 12,6 km/h (3 Bft)
19.10.2014 10:58 17,9 C 16,7 C 98 % 1015,6 hPa 0,0 l/m 2 min 0 min 351 W/m 14,6 km/h (3 Bft)
19.10.2014 11:00 18,0 C 16,7 C 98 % 1015,6 hPa 0,0 l/m 2 min 0 min 355 W/m 12,6 km/h (3 Bft)
19.10.2014 11:02 18,1 C 16,7 C 98 % 1015,6 hPa 0,0 l/m 2 min 0 min 358 W/m 14,6 km/h (3 Bft)
19.10.2014 11:04 18,3 C 16,7 C 97 % 1015,6 hPa 0,0 l/m 2 min 0 min 361 W/m 14,6 km/h (3 Bft)
19.10.2014 11:06 18,4 C 16,7 C 97 % 1015,5 hPa 0,0 l/m 2 min 0 min 363 W/m 18,8 km/h (3 Bft)
19.10.2014 11:08 18,6 C 17,2 C 96 % 1015,5 hPa 0,0 l/m 2 min 0 min 366 W/m 12,6 km/h (3 Bft)
19.10.2014 11:10 18,7 C 17,2 C 96 % 1015,5 hPa 0,0 l/m 2 min 0 min 369 W/m 14,6 km/h (3 Bft)
19.10.2014 11:12 18,8 C 17,2 C 95 % 1015,5 hPa 0,0 l/m 2 min 0 min 371 W/m 20,9 km/h (4 Bft)
19.10.2014 11:14 19,0 C 17,2 C 94 % 1015,6 hPa 0,0 l/m 2 min 0 min 374 W/m 12,6 km/h (3 Bft)
19.10.2014 11:16 19,2 C 17,2 C 92 % 1015,5 hPa 0,0 l/m 2 min 0 min 379 W/m 16,7 km/h (3 Bft)
19.10.2014 11:18 19,3 C 17,8 C 92 % 1015,5 hPa 0,0 l/m 2 min 0 min 388 W/m 14,6 km/h (3 Bft)
19.10.2014 11:20 19,5 C 17,2 C 91 % 1015,4 hPa 0,0 l/m 2 min 0 min 390 W/m 16,7 km/h (3 Bft)
19.10.2014 11:22 19,7 C 17,2 C 90 % 1015,4 hPa 0,0 l/m 2 min 0 min 388 W/m 16,7 km/h (3 Bft)
19.10.2014 11:24 19,8 C 17,2 C 89 % 1015,4 hPa 0,0 l/m 2 min 0 min 386 W/m 14,6 km/h (3 Bft)
19.10.2014 11:26 20,0 C 17,2 C 88 % 1015,4 hPa 0,0 l/m 2 min 0 min 320 W/m 14,6 km/h (3 Bft)
19.10.2014 11:28 20,1 C 17,8 C 87 % 1015,4 hPa 0,0 l/m 0 min 0 min 166 W/m 18,8 km/h (3 Bft)
19.10.2014 11:30 20,2 C 17,8 C 86 % 1015,5 hPa 0,0 l/m 2 min 0 min 270 W/m 14,6 km/h (3 Bft)
19.10.2014 11:32 20,4 C 18,3 C 86 % 1015,4 hPa 0,0 l/m 2 min 0 min 511 W/m 10,5 km/h (2 Bft)
19.10.2014 11:34 20,6 C 18,3 C 85 % 1015,4 hPa 0,0 l/m 2 min 0 min 456 W/m 14,6 km/h (3 Bft)
19.10.2014 11:36 20,7 C 18,3 C 85 % 1015,4 hPa 0,0 l/m 2 min 0 min 417 W/m 12,6 km/h (3 Bft)
19.10.2014 11:38 20,8 C 18,3 C 84 % 1015,5 hPa 0,0 l/m 2 min 0 min 412 W/m 12,6 km/h (3 Bft)
19.10.2014 11:40 21,0 C 18,3 C 84 % 1015,4 hPa 0,0 l/m 2 min 0 min 417 W/m 14,6 km/h (3 Bft)
19.10.2014 11:42 21,2 C 18,3 C 84 % 1015,5 hPa 0,0 l/m 2 min 0 min 418 W/m 10,5 km/h (2 Bft)
19.10.2014 11:44 21,3 C 18,3 C 83 % 1015,4 hPa 0,0 l/m 2 min 0 min 419 W/m 16,7 km/h (3 Bft)
19.10.2014 11:46 21,4 C 18,3 C 82 % 1015,4 hPa 0,0 l/m 2 min 0 min 429 W/m 16,7 km/h (3 Bft)
19.10.2014 11:48 21,5 C 18,9 C 82 % 1015,4 hPa 0,0 l/m 2 min 0 min 454 W/m 16,7 km/h (3 Bft)
19.10.2014 11:50 21,7 C 18,9 C 81 % 1015,4 hPa 0,0 l/m 2 min 0 min 510 W/m 14,6 km/h (3 Bft)
19.10.2014 11:52 21,8 C 18,9 C 81 % 1015,4 hPa 0,0 l/m 2 min 0 min 463 W/m 12,6 km/h (3 Bft)
19.10.2014 11:54 21,9 C 18,9 C 80 % 1015,4 hPa 0,0 l/m 2 min 0 min 462 W/m 12,6 km/h (3 Bft)
19.10.2014 11:56 22,1 C 18,9 C 80 % 1015,5 hPa 0,0 l/m 2 min 0 min 388 W/m 10,5 km/h (2 Bft)
19.10.2014 11:58 22,2 C 18,9 C 80 % 1015,5 hPa 0,0 l/m 2 min 0 min 254 W/m 10,5 km/h (2 Bft)
19.10.2014 12:00 22,2 C 18,9 C 79 % 1015,4 hPa 0,0 l/m 2 min 0 min 196 W/m 10,5 km/h (2 Bft)
19.10.2014 12:02 22,3 C 18,9 C 78 % 1015,4 hPa 0,0 l/m 2 min 0 min 395 W/m 14,6 km/h (3 Bft)
19.10.2014 12:06 22,5 C 19,4 C 76 % 1015,4 hPa 0,0 l/m 2 min 0 min 453 W/m 18,8 km/h (3 Bft)
19.10.2014 12:08 22,6 C 19,4 C 76 % 1015,4 hPa 0,0 l/m 2 min 0 min 345 W/m 12,6 km/h (3 Bft)
19.10.2014 12:10 22,7 C 19,4 C 76 % 1015,4 hPa 0,0 l/m 2 min 0 min 462 W/m 14,6 km/h (3 Bft)
19.10.2014 12:12 22,8 C 19,4 C 75 % 1015,3 hPa 0,0 l/m 2 min 0 min 411 W/m 18,8 km/h (3 Bft)
19.10.2014 12:14 22,9 C 19,4 C 75 % 1015,4 hPa 0,0 l/m 2 min 0 min 452 W/m 16,7 km/h (3 Bft)
19.10.2014 12:16 22,9 C 19,4 C 74 % 1015,4 hPa 0,0 l/m 2 min 0 min 460 W/m 14,6 km/h (3 Bft)
19.10.2014 12:18 23,1 C 19,4 C 74 % 1015,4 hPa 0,0 l/m 2 min 0 min 462 W/m 14,6 km/h (3 Bft)
19.10.2014 12:20 23,1 C 20,0 C 73 % 1015,3 hPa 0,0 l/m 2 min 0 min 462 W/m 12,6 km/h (3 Bft)
19.10.2014 12:22 23,2 C 20,0 C 73 % 1015,4 hPa 0,0 l/m 2 min 0 min 436 W/m 10,5 km/h (2 Bft)
19.10.2014 12:24 23,3 C 20,0 C 73 % 1015,4 hPa 0,0 l/m 2 min 0 min 515 W/m 12,6 km/h (3 Bft)
19.10.2014 12:26 23,4 C 20,0 C 72 % 1015,3 hPa 0,0 l/m 2 min 0 min 531 W/m 16,7 km/h (3 Bft)
19.10.2014 12:28 23,5 C 20,6 C 71 % 1015,4 hPa 0,0 l/m 2 min 0 min 494 W/m 16,7 km/h (3 Bft)
19.10.2014 12:30 23,6 C 20,6 C 71 % 1015,3 hPa 0,0 l/m 2 min 0 min 294 W/m 25,1 km/h (4 Bft)
19.10.2014 12:32 23,6 C 20,6 C 71 % 1015,3 hPa 0,0 l/m 2 min 0 min 250 W/m 16,7 km/h (3 Bft)
19.10.2014 12:34 23,6 C 20,6 C 71 % 1015,3 hPa 0,0 l/m 2 min 0 min 248 W/m 14,6 km/h (3 Bft)
19.10.2014 12:36 23,6 C 20,0 C 72 % 1015,2 hPa 0,0 l/m 2 min 0 min 205 W/m 16,7 km/h (3 Bft)
19.10.2014 12:38 23,6 C 20,0 C 71 % 1015,2 hPa 0,0 l/m 0 min 0 min 173 W/m 14,6 km/h (3 Bft)
19.10.2014 12:40 23,6 C 20,0 C 71 % 1015,1 hPa 0,0 l/m 2 min 0 min 470 W/m 31,4 km/h (5 Bft)
19.10.2014 12:42 23,7 C 20,0 C 71 % 1015,1 hPa 0,0 l/m 2 min 0 min 467 W/m 25,1 km/h (4 Bft)
19.10.2014 12:44 23,7 C 20,0 C 71 % 1015,1 hPa 0,0 l/m 2 min 0 min 468 W/m 20,9 km/h (4 Bft)
19.10.2014 12:46 23,7 C 20,6 C 71 % 1015,1 hPa 0,0 l/m 2 min 0 min 467 W/m 18,8 km/h (3 Bft)
19.10.2014 12:48 23,8 C 20,6 C 71 % 1015,1 hPa 0,0 l/m 2 min 0 min 467 W/m 20,9 km/h (4 Bft)
19.10.2014 12:50 23,8 C 20,6 C 70 % 1015,1 hPa 0,0 l/m 2 min 0 min 468 W/m 14,6 km/h (3 Bft)
19.10.2014 12:52 23,9 C 20,6 C 70 % 1015,2 hPa 0,0 l/m 2 min 0 min 467 W/m 12,6 km/h (3 Bft)
19.10.2014 12:54 23,9 C 20,6 C 71 % 1015,2 hPa 0,0 l/m 2 min 0 min 467 W/m 12,6 km/h (3 Bft)
19.10.2014 12:56 24,0 C 20,6 C 71 % 1015,2 hPa 0,0 l/m 2 min 0 min 467 W/m 8,4 km/h (2 Bft)
19.10.2014 12:58 24,1 C 20,6 C 70 % 1015,3 hPa 0,0 l/m 2 min 0 min 466 W/m 8,4 km/h (2 Bft)
19.10.2014 13:00 24,1 C 20,6 C 70 % 1015,3 hPa 0,0 l/m 2 min 0 min 465 W/m 18,8 km/h (3 Bft)
19.10.2014 13:02 24,2 C 20,6 C 70 % 1015,2 hPa 0,0 l/m 2 min 0 min 463 W/m 10,5 km/h (2 Bft)
19.10.2014 13:04 24,3 C 20,6 C 70 % 1015,3 hPa 0,0 l/m 2 min 0 min 462 W/m 10,5 km/h (2 Bft)
19.10.2014 13:06 24,4 C 20,6 C 70 % 1015,2 hPa 0,0 l/m 2 min 0 min 461 W/m 14,6 km/h (3 Bft)
19.10.2014 13:08 24,4 C 20,6 C 70 % 1015,2 hPa 0,0 l/m 2 min 0 min 460 W/m 10,5 km/h (2 Bft)
19.10.2014 13:10 24,5 C 20,6 C 70 % 1015,2 hPa 0,0 l/m 2 min 0 min 459 W/m 8,4 km/h (2 Bft)
19.10.2014 13:12 24,6 C 20,6 C 69 % 1015,1 hPa 0,0 l/m 2 min 0 min 466 W/m 14,6 km/h (3 Bft)
19.10.2014 13:14 24,6 C 21,1 C 68 % 1015,1 hPa 0,0 l/m 2 min 0 min 462 W/m 14,6 km/h (3 Bft)
19.10.2014 13:16 24,7 C 21,1 C 69 % 1015,1 hPa 0,0 l/m 2 min 0 min 457 W/m 25,1 km/h (4 Bft)
19.10.2014 13:18 24,8 C 21,1 C 69 % 1015,1 hPa 0,0 l/m 2 min 0 min 460 W/m 18,8 km/h (3 Bft)
19.10.2014 13:20 24,8 C 21,1 C 69 % 1015,1 hPa 0,0 l/m 2 min 0 min 460 W/m 10,5 km/h (2 Bft)
19.10.2014 13:22 24,9 C 21,1 C 69 % 1015,1 hPa 0,0 l/m 2 min 0 min 464 W/m 20,9 km/h (4 Bft)
19.10.2014 13:24 24,9 C 21,1 C 68 % 1015,0 hPa 0,0 l/m 2 min 0 min 468 W/m 29,3 km/h (5 Bft)
19.10.2014 13:26 24,9 C 21,1 C 67 % 1015,1 hPa 0,0 l/m 2 min 0 min 469 W/m 31,4 km/h (5 Bft)
19.10.2014 13:28 24,9 C 21,1 C 67 % 1015,0 hPa 0,0 l/m 2 min 0 min 468 W/m 18,8 km/h (3 Bft)
19.10.2014 13:30 24,9 C 21,1 C 68 % 1014,8 hPa 0,0 l/m 2 min 0 min 466 W/m 29,3 km/h (5 Bft)
19.10.2014 13:32 24,9 C 21,1 C 68 % 1014,9 hPa 0,0 l/m 2 min 0 min 465 W/m 20,9 km/h (4 Bft)
19.10.2014 13:34 24,9 C 21,1 C 68 % 1014,9 hPa 0,0 l/m 2 min 0 min 463 W/m 20,9 km/h (4 Bft)
19.10.2014 13:36 24,9 C 21,1 C 68 % 1014,9 hPa 0,0 l/m 2 min 0 min 465 W/m 25,1 km/h (4 Bft)
19.10.2014 13:38 24,9 C 21,1 C 68 % 1014,9 hPa 0,0 l/m 2 min 0 min 464 W/m 18,8 km/h (3 Bft)
19.10.2014 13:40 24,9 C 21,1 C 67 % 1014,8 hPa 0,0 l/m 2 min 0 min 463 W/m 31,4 km/h (5 Bft)
19.10.2014 13:42 24,9 C 21,1 C 67 % 1014,8 hPa 0,0 l/m 2 min 0 min 463 W/m 25,1 km/h (4 Bft)
19.10.2014 13:44 24,8 C 21,1 C 67 % 1014,8 hPa 0,0 l/m 2 min 0 min 466 W/m 23,0 km/h (4 Bft)
19.10.2014 13:46 24,8 C 21,1 C 67 % 1014,8 hPa 0,0 l/m 2 min 0 min 466 W/m 23,0 km/h (4 Bft)
19.10.2014 13:48 24,8 C 21,1 C 67 % 1014,8 hPa 0,0 l/m 2 min 0 min 470 W/m 23,0 km/h (4 Bft)
19.10.2014 13:50 24,8 C 21,1 C 68 % 1014,8 hPa 0,0 l/m 2 min 0 min 476 W/m 23,0 km/h (4 Bft)
19.10.2014 13:52 24,8 C 21,1 C 68 % 1014,8 hPa 0,0 l/m 2 min 0 min 482 W/m 29,3 km/h (5 Bft)
19.10.2014 13:54 24,8 C 21,1 C 68 % 1014,7 hPa 0,0 l/m 2 min 0 min 492 W/m 37,7 km/h (5 Bft)
19.10.2014 13:56 24,8 C 21,1 C 67 % 1014,8 hPa 0,0 l/m 2 min 0 min 426 W/m 31,4 km/h (5 Bft)
19.10.2014 13:58 24,7 C 21,1 C 68 % 1014,8 hPa 0,0 l/m 2 min 0 min 503 W/m 29,3 km/h (5 Bft)
19.10.2014 14:00 24,7 C 21,1 C 68 % 1014,8 hPa 0,0 l/m 2 min 0 min 454 W/m 20,9 km/h (4 Bft)
19.10.2014 14:02 24,7 C 21,1 C 68 % 1014,7 hPa 0,0 l/m 2 min 0 min 507 W/m 33,5 km/h (5 Bft)
19.10.2014 14:04 24,7 C 21,1 C 69 % 1014,8 hPa 0,0 l/m 2 min 0 min 485 W/m 23,0 km/h (4 Bft)
19.10.2014 14:06 24,7 C 21,7 C 69 % 1014,8 hPa 0,0 l/m 2 min 0 min 476 W/m 27,2 km/h (4 Bft)
19.10.2014 14:08 24,7 C 21,1 C 68 % 1014,7 hPa 0,0 l/m 2 min 0 min 327 W/m 29,3 km/h (5 Bft)
19.10.2014 14:10 24,6 C 21,1 C 68 % 1014,7 hPa 0,0 l/m 2 min 0 min 338 W/m 20,9 km/h (4 Bft)
19.10.2014 14:12 24,6 C 21,1 C 69 % 1014,6 hPa 0,0 l/m 2 min 0 min 438 W/m 23,0 km/h (4 Bft)
19.10.2014 14:14 24,6 C 21,1 C 69 % 1014,5 hPa 0,0 l/m 2 min 0 min 462 W/m 23,0 km/h (4 Bft)
19.10.2014 14:16 24,5 C 21,1 C 69 % 1014,6 hPa 0,0 l/m 2 min 0 min 457 W/m 25,1 km/h (4 Bft)
19.10.2014 14:18 24,5 C 21,1 C 69 % 1014,5 hPa 0,0 l/m 2 min 0 min 396 W/m 25,1 km/h (4 Bft)
19.10.2014 14:20 24,4 C 21,1 C 69 % 1014,5 hPa 0,0 l/m 2 min 0 min 334 W/m 27,2 km/h (4 Bft)
19.10.2014 14:22 24,4 C 21,1 C 69 % 1014,5 hPa 0,0 l/m 2 min 0 min 449 W/m 27,2 km/h (4 Bft)
19.10.2014 14:24 24,4 C 21,1 C 69 % 1014,5 hPa 0,0 l/m 2 min 0 min 438 W/m 23,0 km/h (4 Bft)
19.10.2014 14:26 24,4 C 21,1 C 70 % 1014,5 hPa 0,0 l/m 2 min 0 min 432 W/m 31,4 km/h (5 Bft)
19.10.2014 14:28 24,3 C 21,1 C 70 % 1014,4 hPa 0,0 l/m 2 min 0 min 429 W/m 31,4 km/h (5 Bft)
19.10.2014 14:30 24,3 C 21,1 C 70 % 1014,4 hPa 0,0 l/m 2 min 0 min 394 W/m 29,3 km/h (5 Bft)
19.10.2014 14:32 24,3 C 21,1 C 70 % 1014,3 hPa 0,0 l/m 2 min 0 min 418 W/m 25,1 km/h (4 Bft)
19.10.2014 14:34 24,3 C 21,1 C 70 % 1014,4 hPa 0,0 l/m 2 min 0 min 424 W/m 29,3 km/h (5 Bft)
19.10.2014 14:36 24,3 C 21,1 C 70 % 1014,3 hPa 0,0 l/m 2 min 0 min 425 W/m 29,3 km/h (5 Bft)
19.10.2014 14:38 24,3 C 21,1 C 70 % 1014,4 hPa 0,0 l/m 2 min 0 min 419 W/m 25,1 km/h (4 Bft)
19.10.2014 14:40 24,3 C 21,1 C 70 % 1014,3 hPa 0,0 l/m 2 min 0 min 414 W/m 18,8 km/h (3 Bft)
19.10.2014 14:42 24,3 C 21,1 C 70 % 1014,3 hPa 0,0 l/m 2 min 0 min 412 W/m 29,3 km/h (5 Bft)
19.10.2014 14:44 24,3 C 21,1 C 70 % 1014,3 hPa 0,0 l/m 2 min 0 min 412 W/m 23,0 km/h (4 Bft)
19.10.2014 14:46 24,3 C 21,1 C 71 % 1014,3 hPa 0,0 l/m 2 min 0 min 410 W/m 23,0 km/h (4 Bft)
19.10.2014 14:48 24,3 C 21,1 C 71 % 1014,3 hPa 0,0 l/m 2 min 0 min 412 W/m 29,3 km/h (5 Bft)
19.10.2014 14:50 24,3 C 21,1 C 70 % 1014,3 hPa 0,0 l/m 2 min 0 min 416 W/m 27,2 km/h (4 Bft)
19.10.2014 14:52 24,3 C 21,1 C 70 % 1014,2 hPa 0,0 l/m 2 min 0 min 432 W/m 31,4 km/h (5 Bft)
19.10.2014 14:54 24,3 C 21,1 C 70 % 1014,3 hPa 0,0 l/m 2 min 0 min 251 W/m 31,4 km/h (5 Bft)
19.10.2014 14:56 24,2 C 21,1 C 70 % 1014,2 hPa 0,0 l/m 2 min 0 min 359 W/m 31,4 km/h (5 Bft)
19.10.2014 14:58 24,2 C 21,1 C 70 % 1014,2 hPa 0,0 l/m 2 min 0 min 410 W/m 29,3 km/h (5 Bft)
19.10.2014 15:00 24,2 C 21,1 C 70 % 1014,2 hPa 0,0 l/m 2 min 0 min 410 W/m 27,2 km/h (4 Bft)
19.10.2014 15:02 24,2 C 21,1 C 70 % 1014,2 hPa 0,0 l/m 2 min 0 min 400 W/m 20,9 km/h (4 Bft)
19.10.2014 15:04 24,2 C 21,1 C 71 % 1014,1 hPa 0,0 l/m 2 min 0 min 395 W/m 23,0 km/h (4 Bft)
19.10.2014 15:06 24,2 C 21,1 C 71 % 1014,1 hPa 0,0 l/m 2 min 0 min 390 W/m 20,9 km/h (4 Bft)
19.10.2014 15:08 24,2 C 21,1 C 70 % 1014,1 hPa 0,0 l/m 2 min 0 min 383 W/m 31,4 km/h (5 Bft)
19.10.2014 15:10 24,2 C 21,1 C 70 % 1014,1 hPa 0,0 l/m 2 min 0 min 380 W/m 33,5 km/h (5 Bft)
19.10.2014 15:12 24,2 C 21,1 C 70 % 1014,1 hPa 0,0 l/m 2 min 0 min 373 W/m 29,3 km/h (5 Bft)
19.10.2014 15:14 24,2 C 21,1 C 70 % 1014,1 hPa 0,0 l/m 2 min 0 min 378 W/m 29,3 km/h (5 Bft)
19.10.2014 15:16 24,2 C 21,1 C 69 % 1014,2 hPa 0,0 l/m 2 min 0 min 379 W/m 27,2 km/h (4 Bft)
19.10.2014 15:18 24,2 C 21,1 C 69 % 1014,1 hPa 0,0 l/m 2 min 0 min 340 W/m 29,3 km/h (5 Bft)
19.10.2014 15:20 24,2 C 21,1 C 70 % 1014,1 hPa 0,0 l/m 2 min 0 min 332 W/m 23,0 km/h (4 Bft)
19.10.2014 15:22 24,2 C 21,1 C 70 % 1014,1 hPa 0,0 l/m 2 min 0 min 346 W/m 20,9 km/h (4 Bft)
19.10.2014 15:24 24,2 C 21,1 C 70 % 1014,1 hPa 0,0 l/m 2 min 0 min 354 W/m 29,3 km/h (5 Bft)
19.10.2014 15:26 24,2 C 21,1 C 70 % 1014,2 hPa 0,0 l/m 2 min 0 min 356 W/m 27,2 km/h (4 Bft)
19.10.2014 15:28 24,2 C 21,1 C 70 % 1014,2 hPa 0,0 l/m 2 min 0 min 348 W/m 33,5 km/h (5 Bft)
19.10.2014 15:30 24,2 C 21,1 C 70 % 1014,1 hPa 0,0 l/m 2 min 0 min 348 W/m 29,3 km/h (5 Bft)
19.10.2014 15:32 24,2 C 21,1 C 70 % 1014,1 hPa 0,0 l/m 2 min 0 min 342 W/m 23,0 km/h (4 Bft)
19.10.2014 15:34 24,2 C 21,1 C 70 % 1014,1 hPa 0,0 l/m 2 min 0 min 339 W/m 35,6 km/h (5 Bft)
19.10.2014 15:36 24,1 C 21,1 C 69 % 1014,2 hPa 0,0 l/m 2 min 0 min 335 W/m 33,5 km/h (5 Bft)
19.10.2014 15:38 24,1 C 21,1 C 70 % 1014,2 hPa 0,0 l/m 2 min 0 min 332 W/m 23,0 km/h (4 Bft)
19.10.2014 15:40 24,2 C 21,1 C 70 % 1014,2 hPa 0,0 l/m 2 min 0 min 328 W/m 14,6 km/h (3 Bft)
19.10.2014 15:42 24,2 C 20,6 C 71 % 1014,2 hPa 0,0 l/m 2 min 0 min 326 W/m 35,6 km/h (5 Bft)
19.10.2014 15:44 24,1 C 21,1 C 70 % 1014,3 hPa 0,0 l/m 2 min 0 min 322 W/m 29,3 km/h (5 Bft)
19.10.2014 15:46 24,1 C 20,6 C 69 % 1014,3 hPa 0,0 l/m 2 min 0 min 319 W/m 25,1 km/h (4 Bft)
19.10.2014 15:48 24,1 C 20,6 C 70 % 1014,2 hPa 0,0 l/m 2 min 0 min 313 W/m 37,7 km/h (5 Bft)
19.10.2014 15:50 24,1 C 20,6 C 70 % 1014,4 hPa 0,0 l/m 2 min 0 min 307 W/m 29,3 km/h (5 Bft)
19.10.2014 15:52 24,1 C 21,1 C 70 % 1014,4 hPa 0,0 l/m 2 min 0 min 304 W/m 35,6 km/h (5 Bft)
19.10.2014 15:54 24,0 C 20,6 C 70 % 1014,4 hPa 0,0 l/m 2 min 0 min 306 W/m 39,7 km/h (6 Bft)
19.10.2014 15:56 23,9 C 20,6 C 70 % 1014,4 hPa 0,0 l/m 2 min 0 min 243 W/m 25,1 km/h (4 Bft)
19.10.2014 15:58 23,9 C 20,6 C 70 % 1014,4 hPa 0,0 l/m 0 min 0 min 130 W/m 25,1 km/h (4 Bft)
19.10.2014 16:00 23,8 C 20,6 C 71 % 1014,4 hPa 0,0 l/m 2 min 0 min 281 W/m 29,3 km/h (5 Bft)
19.10.2014 16:02 23,8 C 20,6 C 71 % 1014,4 hPa 0,0 l/m 2 min 0 min 325 W/m 27,2 km/h (4 Bft)
19.10.2014 16:04 23,7 C 20,6 C 71 % 1014,5 hPa 0,0 l/m 2 min 0 min 216 W/m 35,6 km/h (5 Bft)
19.10.2014 16:06 23,6 C 20,6 C 71 % 1014,5 hPa 0,0 l/m 2 min 0 min 142 W/m 37,7 km/h (5 Bft)
19.10.2014 16:08 23,5 C 20,6 C 71 % 1014,5 hPa 0,0 l/m 2 min 0 min 158 W/m 37,7 km/h (5 Bft)
19.10.2014 16:10 23,4 C 20,6 C 71 % 1014,4 hPa 0,0 l/m 2 min 0 min 198 W/m 35,6 km/h (5 Bft)
19.10.2014 16:12 23,3 C 20,6 C 71 % 1014,4 hPa 0,0 l/m 2 min 0 min 200 W/m 29,3 km/h (5 Bft)
19.10.2014 16:14 23,2 C 20,6 C 72 % 1014,4 hPa 0,0 l/m 2 min 0 min 235 W/m 31,4 km/h (5 Bft)
19.10.2014 16:16 23,2 C 20,6 C 72 % 1014,4 hPa 0,0 l/m 2 min 0 min 220 W/m 41,8 km/h (6 Bft)
19.10.2014 16:18 23,1 C 20,6 C 72 % 1014,4 hPa 0,0 l/m 2 min 0 min 145 W/m 29,3 km/h (5 Bft)
19.10.2014 16:20 23,1 C 20,6 C 72 % 1014,4 hPa 0,0 l/m 2 min 0 min 124 W/m 31,4 km/h (5 Bft)
19.10.2014 16:22 23,0 C 20,6 C 72 % 1014,5 hPa 0,0 l/m 0 min 0 min 108 W/m 25,1 km/h (4 Bft)
19.10.2014 16:24 22,9 C 20,6 C 73 % 1014,4 hPa 0,0 l/m 0 min 0 min 100 W/m 27,2 km/h (4 Bft)
19.10.2014 16:26 22,9 C 20,0 C 73 % 1014,4 hPa 0,0 l/m 0 min 0 min 90 W/m 25,1 km/h (4 Bft)
19.10.2014 16:28 22,8 C 20,0 C 73 % 1014,4 hPa 0,0 l/m 0 min 0 min 90 W/m 27,2 km/h (4 Bft)
19.10.2014 16:30 22,7 C 20,0 C 74 % 1014,4 hPa 0,0 l/m 0 min 0 min 86 W/m 29,3 km/h (5 Bft)
19.10.2014 16:32 22,7 C 20,0 C 74 % 1014,4 hPa 0,0 l/m 0 min 0 min 72 W/m 27,2 km/h (4 Bft)
19.10.2014 16:34 22,6 C 20,0 C 74 % 1014,3 hPa 0,0 l/m 0 min 0 min 67 W/m 29,3 km/h (5 Bft)
19.10.2014 16:36 22,6 C 20,0 C 74 % 1014,3 hPa 0,0 l/m 0 min 0 min 73 W/m 18,8 km/h (3 Bft)
19.10.2014 16:38 22,5 C 20,0 C 74 % 1014,3 hPa 0,0 l/m 2 min 0 min 110 W/m 31,4 km/h (5 Bft)
19.10.2014 16:40 22,4 C 20,0 C 75 % 1014,3 hPa 0,0 l/m 2 min 0 min 124 W/m 20,9 km/h (4 Bft)
19.10.2014 16:42 22,4 C 20,0 C 75 % 1014,3 hPa 0,0 l/m 2 min 0 min 140 W/m 25,1 km/h (4 Bft)
19.10.2014 16:44 22,4 C 20,0 C 75 % 1014,3 hPa 0,0 l/m 2 min 0 min 203 W/m 23,0 km/h (4 Bft)
19.10.2014 16:46 22,4 C 20,0 C 75 % 1014,2 hPa 0,0 l/m 2 min 0 min 167 W/m 31,4 km/h (5 Bft)
19.10.2014 16:48 22,4 C 20,0 C 75 % 1014,2 hPa 0,0 l/m 2 min 0 min 171 W/m 23,0 km/h (4 Bft)
19.10.2014 16:50 22,4 C 20,0 C 75 % 1014,2 hPa 0,0 l/m 2 min 0 min 143 W/m 31,4 km/h (5 Bft)
19.10.2014 16:52 22,3 C 20,0 C 75 % 1014,3 hPa 0,0 l/m 2 min 0 min 160 W/m 27,2 km/h (4 Bft)
19.10.2014 16:54 22,4 C 20,0 C 75 % 1014,2 hPa 0,0 l/m 2 min 0 min 144 W/m 20,9 km/h (4 Bft)
19.10.2014 16:56 22,3 C 19,4 C 75 % 1014,3 hPa 0,0 l/m 2 min 0 min 135 W/m 16,7 km/h (3 Bft)
19.10.2014 16:58 22,3 C 19,4 C 75 % 1014,2 hPa 0,0 l/m 2 min 0 min 101 W/m 25,1 km/h (4 Bft)
19.10.2014 17:00 22,3 C 19,4 C 75 % 1014,1 hPa 0,0 l/m 0 min 0 min 85 W/m 27,2 km/h (4 Bft)
19.10.2014 17:02 22,3 C 19,4 C 75 % 1014,2 hPa 0,0 l/m 0 min 0 min 54 W/m 23,0 km/h (4 Bft)
19.10.2014 17:04 22,2 C 19,4 C 75 % 1014,2 hPa 0,0 l/m 0 min 0 min 75 W/m 23,0 km/h (4 Bft)
19.10.2014 17:06 22,2 C 19,4 C 76 % 1014,2 hPa 0,0 l/m 2 min 0 min 111 W/m 18,8 km/h (3 Bft)
19.10.2014 17:08 22,2 C 19,4 C 76 % 1014,2 hPa 0,0 l/m 2 min 0 min 109 W/m 16,7 km/h (3 Bft)
19.10.2014 17:10 22,1 C 19,4 C 76 % 1014,2 hPa 0,0 l/m 2 min 0 min 104 W/m 12,6 km/h (3 Bft)
19.10.2014 17:12 22,1 C 19,4 C 76 % 1014,0 hPa 0,0 l/m 2 min 0 min 99 W/m 23,0 km/h (4 Bft)
19.10.2014 17:14 22,1 C 19,4 C 76 % 1014,0 hPa 0,0 l/m 2 min 0 min 96 W/m 25,1 km/h (4 Bft)
19.10.2014 17:16 22,0 C 19,4 C 76 % 1014,0 hPa 0,0 l/m 2 min 0 min 92 W/m 31,4 km/h (5 Bft)
19.10.2014 17:18 21,9 C 19,4 C 76 % 1014,0 hPa 0,0 l/m 2 min 0 min 87 W/m 27,2 km/h (4 Bft)
19.10.2014 17:20 21,9 C 19,4 C 76 % 1014,0 hPa 0,0 l/m 2 min 0 min 82 W/m 20,9 km/h (4 Bft)
19.10.2014 17:22 21,8 C 19,4 C 76 % 1014,0 hPa 0,0 l/m 2 min 0 min 79 W/m 20,9 km/h (4 Bft)
19.10.2014 17:24 21,8 C 19,4 C 76 % 1014,0 hPa 0,0 l/m 2 min 0 min 74 W/m 20,9 km/h (4 Bft)
19.10.2014 17:26 21,8 C 19,4 C 77 % 1014,0 hPa 0,0 l/m 2 min 0 min 69 W/m 20,9 km/h (4 Bft)
19.10.2014 17:28 21,7 C 18,9 C 77 % 1014,1 hPa 0,0 l/m 2 min 0 min 65 W/m 27,2 km/h (4 Bft)
19.10.2014 17:30 21,7 C 18,9 C 77 % 1014,1 hPa 0,0 l/m 2 min 0 min 63 W/m 23,0 km/h (4 Bft)
19.10.2014 17:32 21,7 C 18,9 C 77 % 1014,1 hPa 0,0 l/m 2 min 0 min 59 W/m 25,1 km/h (4 Bft)
19.10.2014 17:34 21,6 C 18,9 C 78 % 1014,1 hPa 0,0 l/m 0 min 0 min 54 W/m 18,8 km/h (3 Bft)
19.10.2014 17:36 21,6 C 18,9 C 78 % 1013,9 hPa 0,0 l/m 0 min 0 min 51 W/m 12,6 km/h (3 Bft)
19.10.2014 17:38 21,6 C 18,9 C 78 % 1014,0 hPa 0,0 l/m 0 min 0 min 46 W/m 23,0 km/h (4 Bft)
19.10.2014 17:40 21,5 C 18,9 C 78 % 1013,9 hPa 0,0 l/m 0 min 0 min 44 W/m 25,1 km/h (4 Bft)
19.10.2014 17:42 21,5 C 18,9 C 78 % 1014,0 hPa 0,0 l/m 0 min 0 min 40 W/m 27,2 km/h (4 Bft)
19.10.2014 17:44 21,4 C 18,9 C 78 % 1014,0 hPa 0,0 l/m 0 min 0 min 38 W/m 14,6 km/h (3 Bft)
19.10.2014 17:46 21,4 C 18,9 C 78 % 1014,1 hPa 0,0 l/m 0 min 0 min 34 W/m 23,0 km/h (4 Bft)
19.10.2014 17:48 21,4 C 18,9 C 78 % 1014,1 hPa 0,0 l/m 0 min 0 min 33 W/m 18,8 km/h (3 Bft)
19.10.2014 17:50 21,4 C 18,9 C 78 % 1014,1 hPa 0,0 l/m 0 min 0 min 32 W/m 16,7 km/h (3 Bft)
19.10.2014 17:52 21,3 C 18,9 C 79 % 1014,1 hPa 0,0 l/m 0 min 0 min 32 W/m 18,8 km/h (3 Bft)
19.10.2014 17:54 21,3 C 18,9 C 79 % 1014,1 hPa 0,0 l/m 0 min 0 min 32 W/m 20,9 km/h (4 Bft)
19.10.2014 17:56 21,3 C 18,9 C 79 % 1014,1 hPa 0,0 l/m 0 min 0 min 33 W/m 12,6 km/h (3 Bft)
19.10.2014 17:58 21,2 C 18,9 C 79 % 1014,1 hPa 0,0 l/m 2 min 0 min 32 W/m 14,6 km/h (3 Bft)
19.10.2014 18:00 21,2 C 18,9 C 79 % 1014,1 hPa 0,0 l/m 0 min 0 min 26 W/m 16,7 km/h (3 Bft)
19.10.2014 18:02 21,2 C 18,9 C 79 % 1014,1 hPa 0,0 l/m 0 min 0 min 25 W/m 25,1 km/h (4 Bft)
19.10.2014 18:06 21,1 C 18,3 C 80 % 1014,0 hPa 0,0 l/m 0 min 0 min 21 W/m 16,7 km/h (3 Bft)
19.10.2014 18:08 21,1 C 18,3 C 80 % 1014,0 hPa 0,0 l/m 0 min 0 min 19 W/m 12,6 km/h (3 Bft)
19.10.2014 18:10 21,1 C 18,3 C 80 % 1014,1 hPa 0,0 l/m 0 min 0 min 17 W/m 16,7 km/h (3 Bft)
19.10.2014 18:12 21,0 C 18,3 C 80 % 1014,1 hPa 0,0 l/m 0 min 0 min 16 W/m 18,8 km/h (3 Bft)
19.10.2014 18:14 21,0 C 18,3 C 80 % 1014,1 hPa 0,0 l/m 2 min 0 min 16 W/m 14,6 km/h (3 Bft)
19.10.2014 18:16 20,9 C 18,3 C 80 % 1014,1 hPa 0,0 l/m 2 min 0 min 14 W/m 14,6 km/h (3 Bft)
19.10.2014 18:18 20,9 C 18,3 C 81 % 1014,1 hPa 0,0 l/m 0 min 0 min 12 W/m 16,7 km/h (3 Bft)
19.10.2014 18:20 20,9 C 18,3 C 81 % 1014,1 hPa 0,0 l/m 0 min 0 min 11 W/m 12,6 km/h (3 Bft)
19.10.2014 18:22 20,8 C 18,3 C 81 % 1014,1 hPa 0,0 l/m 0 min 0 min 9 W/m 20,9 km/h (4 Bft)
19.10.2014 18:24 20,8 C 18,3 C 81 % 1014,1 hPa 0,0 l/m 0 min 0 min 9 W/m 23,0 km/h (4 Bft)
19.10.2014 18:26 20,7 C 18,3 C 81 % 1014,1 hPa 0,0 l/m 0 min 0 min 7 W/m 29,3 km/h (5 Bft)
19.10.2014 18:28 20,7 C 18,3 C 81 % 1014,1 hPa 0,0 l/m 0 min 0 min 7 W/m 18,8 km/h (3 Bft)
19.10.2014 18:30 20,7 C 18,3 C 81 % 1014,1 hPa 0,0 l/m 0 min 0 min 5 W/m 23,0 km/h (4 Bft)
19.10.2014 18:32 20,6 C 18,3 C 81 % 1014,1 hPa 0,0 l/m 0 min 0 min 5 W/m 23,0 km/h (4 Bft)
19.10.2014 18:34 20,6 C 18,3 C 82 % 1014,1 hPa 0,0 l/m 0 min 0 min 5 W/m 18,8 km/h (3 Bft)
19.10.2014 18:36 20,6 C 18,3 C 82 % 1014,1 hPa 0,0 l/m 0 min 0 min 0 W/m 18,8 km/h (3 Bft)
19.10.2014 18:38 20,5 C 18,3 C 82 % 1014,1 hPa 0,0 l/m 0 min 0 min 0 W/m 16,7 km/h (3 Bft)
19.10.2014 18:40 20,5 C 18,3 C 82 % 1014,1 hPa 0,0 l/m 0 min 0 min 0 W/m 16,7 km/h (3 Bft)
19.10.2014 18:42 20,5 C 18,3 C 82 % 1014,0 hPa 0,0 l/m 0 min 0 min 0 W/m 14,6 km/h (3 Bft)
19.10.2014 18:44 20,4 C 18,3 C 82 % 1014,0 hPa 0,0 l/m 0 min 0 min 0 W/m 18,8 km/h (3 Bft)
19.10.2014 18:46 20,4 C 18,3 C 82 % 1013,9 hPa 0,0 l/m 0 min 0 min 0 W/m 20,9 km/h (4 Bft)
19.10.2014 18:48 20,4 C 18,3 C 83 % 1013,9 hPa 0,0 l/m 0 min 0 min 0 W/m 20,9 km/h (4 Bft)
19.10.2014 18:50 20,3 C 18,3 C 82 % 1014,0 hPa 0,0 l/m 0 min 0 min 0 W/m 16,7 km/h (3 Bft)
19.10.2014 18:52 20,3 C 18,3 C 82 % 1014,0 hPa 0,0 l/m 0 min 0 min 0 W/m 20,9 km/h (4 Bft)
19.10.2014 18:54 20,3 C 18,3 C 82 % 1014,1 hPa 0,0 l/m 0 min 0 min 0 W/m 20,9 km/h (4 Bft)
19.10.2014 18:56 20,3 C 17,8 C 83 % 1014,1 hPa 0,0 l/m 0 min 0 min 0 W/m 14,6 km/h (3 Bft)
19.10.2014 18:58 20,3 C 17,8 C 83 % 1014,1 hPa 0,0 l/m 0 min 0 min 0 W/m 20,9 km/h (4 Bft)
19.10.2014 19:00 20,3 C 18,3 C 83 % 1014,1 hPa 0,0 l/m 0 min 0 min 0 W/m 20,9 km/h (4 Bft)
19.10.2014 19:02 20,2 C 18,3 C 83 % 1014,1 hPa 0,0 l/m 0 min 0 min 0 W/m 16,7 km/h (3 Bft)
19.10.2014 19:04 20,2 C 17,8 C 83 % 1014,1 hPa 0,0 l/m 0 min 0 min 0 W/m 16,7 km/h (3 Bft)
19.10.2014 19:06 20,2 C 18,3 C 83 % 1014,1 hPa 0,0 l/m 0 min 0 min 0 W/m 23,0 km/h (4 Bft)
19.10.2014 19:08 20,2 C 18,3 C 83 % 1014,0 hPa 0,0 l/m 0 min 0 min 0 W/m 18,8 km/h (3 Bft)
19.10.2014 19:10 20,2 C 18,3 C 83 % 1014,1 hPa 0,0 l/m 0 min 0 min 0 W/m 14,6 km/h (3 Bft)
19.10.2014 19:12 20,2 C 18,3 C 83 % 1014,0 hPa 0,0 l/m 0 min 0 min 0 W/m 14,6 km/h (3 Bft)
19.10.2014 19:14 20,2 C 17,8 C 83 % 1014,1 hPa 0,0 l/m 0 min 0 min 0 W/m 14,6 km/h (3 Bft)
19.10.2014 19:16 20,2 C 17,8 C 83 % 1014,0 hPa 0,0 l/m 0 min 0 min 0 W/m 8,4 km/h (2 Bft)
19.10.2014 19:18 20,2 C 17,8 C 83 % 1014,0 hPa 0,0 l/m 0 min 0 min 0 W/m 10,5 km/h (2 Bft)
19.10.2014 19:20 20,2 C 17,8 C 83 % 1014,1 hPa 0,0 l/m 0 min 0 min 0 W/m 14,6 km/h (3 Bft)
19.10.2014 19:22 20,2 C 17,8 C 83 % 1014,0 hPa 0,0 l/m 0 min 0 min 0 W/m 14,6 km/h (3 Bft)
19.10.2014 19:24 20,1 C 17,8 C 83 % 1014,1 hPa 0,0 l/m 0 min 0 min 0 W/m 20,9 km/h (4 Bft)
19.10.2014 19:26 20,1 C 17,8 C 84 % 1014,1 hPa 0,0 l/m 0 min 0 min 0 W/m 14,6 km/h (3 Bft)
19.10.2014 19:28 20,1 C 17,8 C 84 % 1014,2 hPa 0,0 l/m 0 min 0 min 0 W/m 14,6 km/h (3 Bft)
19.10.2014 19:30 20,1 C 17,8 C 84 % 1014,2 hPa 0,0 l/m 0 min 0 min 0 W/m 14,6 km/h (3 Bft)
19.10.2014 19:32 20,1 C 17,8 C 84 % 1014,2 hPa 0,0 l/m 0 min 0 min 0 W/m 18,8 km/h (3 Bft)
19.10.2014 19:34 20,1 C 17,8 C 84 % 1014,2 hPa 0,0 l/m 0 min 0 min 0 W/m 12,6 km/h (3 Bft)
19.10.2014 19:36 20,1 C 17,8 C 84 % 1014,2 hPa 0,0 l/m 0 min 0 min 0 W/m 14,6 km/h (3 Bft)
19.10.2014 19:38 20,1 C 17,8 C 84 % 1014,2 hPa 0,0 l/m 0 min 0 min 0 W/m 16,7 km/h (3 Bft)
19.10.2014 19:40 20,0 C 17,8 C 84 % 1014,3 hPa 0,0 l/m 0 min 0 min 0 W/m 16,7 km/h (3 Bft)
19.10.2014 19:42 20,0 C 17,8 C 84 % 1014,3 hPa 0,0 l/m 0 min 0 min 0 W/m 18,8 km/h (3 Bft)
19.10.2014 19:44 20,0 C 17,8 C 84 % 1014,4 hPa 0,0 l/m 0 min 0 min 0 W/m 25,1 km/h (4 Bft)
19.10.2014 19:46 20,0 C 17,8 C 84 % 1014,4 hPa 0,0 l/m 0 min 0 min 0 W/m 25,1 km/h (4 Bft)
19.10.2014 19:48 20,0 C 17,8 C 84 % 1014,4 hPa 0,0 l/m 0 min 0 min 0 W/m 23,0 km/h (4 Bft)
19.10.2014 19:50 19,9 C 17,8 C 84 % 1014,4 hPa 0,0 l/m 0 min 0 min 0 W/m 18,8 km/h (3 Bft)
19.10.2014 19:52 19,9 C 17,8 C 84 % 1014,4 hPa 0,0 l/m 0 min 0 min 0 W/m 18,8 km/h (3 Bft)
19.10.2014 19:54 19,9 C 17,8 C 84 % 1014,4 hPa 0,0 l/m 0 min 0 min 0 W/m 20,9 km/h (4 Bft)
19.10.2014 19:56 19,9 C 17,8 C 84 % 1014,4 hPa 0,0 l/m 0 min 0 min 0 W/m 16,7 km/h (3 Bft)
19.10.2014 19:58 19,9 C 17,8 C 84 % 1014,4 hPa 0,0 l/m 0 min 0 min 0 W/m 20,9 km/h (4 Bft)
19.10.2014 20:00 19,9 C 17,8 C 84 % 1014,4 hPa 0,0 l/m 0 min 0 min 0 W/m 16,7 km/h (3 Bft)
19.10.2014 20:02 19,9 C 17,8 C 84 % 1014,4 hPa 0,0 l/m 0 min 0 min 0 W/m 12,6 km/h (3 Bft)
19.10.2014 20:04 19,9 C 17,8 C 84 % 1014,5 hPa 0,0 l/m 0 min 0 min 0 W/m 10,5 km/h (2 Bft)
19.10.2014 20:06 19,9 C 17,8 C 85 % 1014,6 hPa 0,0 l/m 0 min 0 min 0 W/m 12,6 km/h (3 Bft)
19.10.2014 20:08 19,9 C 17,8 C 85 % 1014,6 hPa 0,0 l/m 0 min 0 min 0 W/m 20,9 km/h (4 Bft)
19.10.2014 20:10 19,9 C 17,8 C 85 % 1014,5 hPa 0,0 l/m 0 min 2 min 0 W/m 12,6 km/h (3 Bft)
19.10.2014 20:12 19,9 C 17,8 C 85 % 1014,7 hPa 0,0 l/m 0 min 2 min 0 W/m 14,6 km/h (3 Bft)
19.10.2014 20:14 19,9 C 17,2 C 85 % 1014,5 hPa 0,0 l/m 0 min 0 min 0 W/m 23,0 km/h (4 Bft)
19.10.2014 20:16 19,8 C 17,2 C 85 % 1014,5 hPa 0,0 l/m 0 min 0 min 0 W/m 16,7 km/h (3 Bft)
19.10.2014 20:18 19,8 C 17,2 C 85 % 1014,6 hPa 0,0 l/m 0 min 0 min 0 W/m 27,2 km/h (4 Bft)
19.10.2014 20:20 19,7 C 16,7 C 86 % 1014,7 hPa 0,0 l/m 0 min 2 min 0 W/m 18,8 km/h (3 Bft)
19.10.2014 20:22 19,7 C 16,1 C 86 % 1014,8 hPa 0,4 l/m 0 min 2 min 0 W/m 23,0 km/h (4 Bft)
19.10.2014 20:24 19,7 C 16,1 C 86 % 1014,7 hPa 0,0 l/m 0 min 2 min 0 W/m 16,7 km/h (3 Bft)
19.10.2014 20:26 19,6 C 16,1 C 87 % 1014,6 hPa 0,0 l/m 0 min 2 min 0 W/m 14,6 km/h (3 Bft)
19.10.2014 20:28 19,5 C 16,1 C 87 % 1014,6 hPa 0,0 l/m 0 min 0 min 0 W/m 16,7 km/h (3 Bft)
19.10.2014 20:30 19,4 C 16,1 C 87 % 1014,6 hPa 0,0 l/m 0 min 0 min 0 W/m 8,4 km/h (2 Bft)
19.10.2014 20:32 19,4 C 16,1 C 88 % 1014,6 hPa 0,0 l/m 0 min 0 min 0 W/m 20,9 km/h (4 Bft)
19.10.2014 20:34 19,3 C 16,1 C 88 % 1014,6 hPa 0,0 l/m 0 min 0 min 0 W/m 20,9 km/h (4 Bft)
19.10.2014 20:36 19,2 C 15,6 C 88 % 1014,6 hPa 0,0 l/m 0 min 0 min 0 W/m 16,7 km/h (3 Bft)
19.10.2014 20:38 19,1 C 15,6 C 88 % 1014,6 hPa 0,0 l/m 0 min 0 min 0 W/m 18,8 km/h (3 Bft)
19.10.2014 20:40 19,1 C 15,6 C 88 % 1014,6 hPa 0,0 l/m 0 min 0 min 0 W/m 29,3 km/h (5 Bft)
19.10.2014 20:42 18,9 C 15,6 C 88 % 1014,7 hPa 0,0 l/m 0 min 0 min 0 W/m 29,3 km/h (5 Bft)
19.10.2014 20:44 18,9 C 15,6 C 88 % 1014,6 hPa 0,0 l/m 0 min 0 min 0 W/m 25,1 km/h (4 Bft)
19.10.2014 20:46 18,8 C 15,6 C 89 % 1014,6 hPa 0,0 l/m 0 min 0 min 0 W/m 23,0 km/h (4 Bft)
19.10.2014 20:48 18,8 C 15,6 C 89 % 1014,6 hPa 0,0 l/m 0 min 0 min 0 W/m 27,2 km/h (4 Bft)
19.10.2014 20:50 18,7 C 15,6 C 89 % 1014,6 hPa 0,0 l/m 0 min 0 min 0 W/m 23,0 km/h (4 Bft)
19.10.2014 20:52 18,7 C 15,6 C 89 % 1014,6 hPa 0,0 l/m 0 min 0 min 0 W/m 18,8 km/h (3 Bft)
19.10.2014 20:54 18,6 C 15,6 C 89 % 1014,6 hPa 0,0 l/m 0 min 0 min 0 W/m 18,8 km/h (3 Bft)
19.10.2014 20:56 18,6 C 15,6 C 89 % 1014,6 hPa 0,0 l/m 0 min 0 min 0 W/m 31,4 km/h (5 Bft)
19.10.2014 20:58 18,6 C 15,6 C 89 % 1014,7 hPa 0,0 l/m 0 min 0 min 0 W/m 27,2 km/h (4 Bft)
19.10.2014 21:00 18,5 C 15,6 C 89 % 1014,6 hPa 0,0 l/m 0 min 0 min 0 W/m 27,2 km/h (4 Bft)
19.10.2014 21:02 18,4 C 15,6 C 88 % 1014,6 hPa 0,0 l/m 0 min 0 min 0 W/m 20,9 km/h (4 Bft)
19.10.2014 21:04 18,4 C 15,6 C 88 % 1014,6 hPa 0,0 l/m 0 min 0 min 0 W/m 29,3 km/h (5 Bft)
19.10.2014 21:06 18,4 C 15,6 C 88 % 1014,6 hPa 0,0 l/m 0 min 0 min 0 W/m 33,5 km/h (5 Bft)
19.10.2014 21:08 18,4 C 15,6 C 88 % 1014,6 hPa 0,0 l/m 0 min 0 min 0 W/m 25,1 km/h (4 Bft)
19.10.2014 21:10 18,4 C 15,6 C 88 % 1014,6 hPa 0,0 l/m 0 min 0 min 0 W/m 20,9 km/h (4 Bft)
19.10.2014 21:12 18,4 C 15,6 C 87 % 1014,6 hPa 0,0 l/m 0 min 0 min 0 W/m 18,8 km/h (3 Bft)
19.10.2014 21:14 18,3 C 15,6 C 87 % 1014,6 hPa 0,0 l/m 0 min 0 min 0 W/m 20,9 km/h (4 Bft)
19.10.2014 21:16 18,3 C 15,6 C 87 % 1014,6 hPa 0,0 l/m 0 min 0 min 0 W/m 25,1 km/h (4 Bft)
19.10.2014 21:18 18,3 C 15,6 C 87 % 1014,6 hPa 0,0 l/m 0 min 0 min 0 W/m 25,1 km/h (4 Bft)
19.10.2014 21:20 18,3 C 15,6 C 87 % 1014,6 hPa 0,0 l/m 0 min 0 min 0 W/m 25,1 km/h (4 Bft)
19.10.2014 21:22 18,4 C 15,6 C 87 % 1014,7 hPa 0,0 l/m 0 min 0 min 0 W/m 25,1 km/h (4 Bft)
19.10.2014 21:24 18,4 C 15,6 C 87 % 1014,6 hPa 0,0 l/m 0 min 0 min 0 W/m 23,0 km/h (4 Bft)
19.10.2014 21:26 18,3 C 15,6 C 86 % 1014,7 hPa 0,0 l/m 0 min 0 min 0 W/m 23,0 km/h (4 Bft)
19.10.2014 21:28 18,3 C 15,6 C 86 % 1014,7 hPa 0,0 l/m 0 min 0 min 0 W/m 25,1 km/h (4 Bft)
19.10.2014 21:30 18,3 C 15,6 C 86 % 1014,8 hPa 0,0 l/m 0 min 0 min 0 W/m 20,9 km/h (4 Bft)
19.10.2014 21:32 18,3 C 15,6 C 86 % 1014,8 hPa 0,0 l/m 0 min 0 min 0 W/m 25,1 km/h (4 Bft)
19.10.2014 21:34 18,3 C 15,6 C 86 % 1015,0 hPa 0,0 l/m 0 min 0 min 0 W/m 23,0 km/h (4 Bft)
19.10.2014 21:36 18,3 C 15,6 C 86 % 1015,0 hPa 0,0 l/m 0 min 0 min 0 W/m 20,9 km/h (4 Bft)
19.10.2014 21:38 18,3 C 15,6 C 86 % 1015,1 hPa 0,0 l/m 0 min 0 min 0 W/m 25,1 km/h (4 Bft)
19.10.2014 21:40 18,3 C 15,6 C 86 % 1015,1 hPa 0,0 l/m 0 min 0 min 0 W/m 25,1 km/h (4 Bft)
19.10.2014 21:42 18,3 C 15,6 C 85 % 1015,1 hPa 0,0 l/m 0 min 0 min 0 W/m 23,0 km/h (4 Bft)
19.10.2014 21:44 18,3 C 15,0 C 85 % 1015,0 hPa 0,0 l/m 0 min 0 min 0 W/m 23,0 km/h (4 Bft)
19.10.2014 21:46 18,2 C 15,0 C 85 % 1015,0 hPa 0,0 l/m 0 min 0 min 0 W/m 23,0 km/h (4 Bft)
19.10.2014 21:48 18,2 C 15,0 C 84 % 1015,0 hPa 0,0 l/m 0 min 0 min 0 W/m 20,9 km/h (4 Bft)
19.10.2014 21:50 18,2 C 15,0 C 84 % 1015,1 hPa 0,0 l/m 0 min 0 min 0 W/m 16,7 km/h (3 Bft)
19.10.2014 21:52 18,2 C 15,0 C 84 % 1015,2 hPa 0,0 l/m 0 min 0 min 0 W/m 29,3 km/h (5 Bft)
19.10.2014 21:54 18,1 C 15,0 C 83 % 1015,2 hPa 0,0 l/m 0 min 0 min 0 W/m 23,0 km/h (4 Bft)
19.10.2014 21:56 18,1 C 15,0 C 82 % 1015,2 hPa 0,0 l/m 0 min 0 min 0 W/m 25,1 km/h (4 Bft)
19.10.2014 21:58 18,0 C 15,0 C 81 % 1015,1 hPa 0,0 l/m 0 min 0 min 0 W/m 25,1 km/h (4 Bft)
19.10.2014 22:00 18,0 C 15,0 C 80 % 1015,2 hPa 0,0 l/m 0 min 0 min 0 W/m 16,7 km/h (3 Bft)
19.10.2014 22:02 17,9 C 15,0 C 80 % 1015,2 hPa 0,0 l/m 0 min 0 min 0 W/m 31,4 km/h (5 Bft)
19.10.2014 22:04 17,9 C 15,0 C 80 % 1015,3 hPa 0,0 l/m 0 min 0 min 0 W/m 16,7 km/h (3 Bft)
19.10.2014 22:06 17,9 C 15,0 C 79 % 1015,3 hPa 0,0 l/m 0 min 0 min 0 W/m 16,7 km/h (3 Bft)
19.10.2014 22:08 17,9 C 15,0 C 79 % 1015,4 hPa 0,0 l/m 0 min 0 min 0 W/m 16,7 km/h (3 Bft)
19.10.2014 22:10 17,8 C 15,0 C 80 % 1015,4 hPa 0,0 l/m 0 min 0 min 0 W/m 16,7 km/h (3 Bft)
19.10.2014 22:12 17,8 C 15,0 C 79 % 1015,5 hPa 0,0 l/m 0 min 0 min 0 W/m 27,2 km/h (4 Bft)
19.10.2014 22:14 17,8 C 15,0 C 79 % 1015,6 hPa 0,0 l/m 0 min 0 min 0 W/m 14,6 km/h (3 Bft)
19.10.2014 22:16 17,8 C 15,0 C 79 % 1015,6 hPa 0,0 l/m 0 min 0 min 0 W/m 14,6 km/h (3 Bft)
19.10.2014 22:18 17,7 C 15,0 C 80 % 1015,7 hPa 0,0 l/m 0 min 0 min 0 W/m 10,5 km/h (2 Bft)
19.10.2014 22:20 17,7 C 14,4 C 80 % 1015,7 hPa 0,0 l/m 0 min 0 min 0 W/m 18,8 km/h (3 Bft)
19.10.2014 22:22 17,7 C 14,4 C 80 % 1015,7 hPa 0,0 l/m 0 min 0 min 0 W/m 12,6 km/h (3 Bft)
19.10.2014 22:24 17,6 C 14,4 C 80 % 1015,8 hPa 0,0 l/m 0 min 0 min 0 W/m 14,6 km/h (3 Bft)
19.10.2014 22:26 17,6 C 14,4 C 80 % 1015,9 hPa 0,0 l/m 0 min 0 min 0 W/m 18,8 km/h (3 Bft)
19.10.2014 22:28 17,5 C 14,4 C 80 % 1015,9 hPa 0,0 l/m 0 min 0 min 0 W/m 29,3 km/h (5 Bft)
19.10.2014 22:30 17,4 C 15,0 C 79 % 1015,9 hPa 0,0 l/m 0 min 0 min 0 W/m 31,4 km/h (5 Bft)
19.10.2014 22:32 17,3 C 15,0 C 78 % 1015,9 hPa 0,0 l/m 0 min 0 min 0 W/m 27,2 km/h (4 Bft)
19.10.2014 22:34 17,3 C 15,0 C 78 % 1016,0 hPa 0,0 l/m 0 min 0 min 0 W/m 31,4 km/h (5 Bft)
19.10.2014 22:36 17,2 C 15,0 C 78 % 1015,9 hPa 0,0 l/m 0 min 0 min 0 W/m 39,7 km/h (6 Bft)
19.10.2014 22:38 17,2 C 15,0 C 77 % 1016,0 hPa 0,0 l/m 0 min 0 min 0 W/m 23,0 km/h (4 Bft)
19.10.2014 22:40 17,2 C 15,0 C 77 % 1015,9 hPa 0,0 l/m 0 min 0 min 0 W/m 23,0 km/h (4 Bft)
19.10.2014 22:42 17,1 C 15,0 C 77 % 1016,0 hPa 0,0 l/m 0 min 0 min 0 W/m 27,2 km/h (4 Bft)
19.10.2014 22:44 17,1 C 15,0 C 77 % 1016,0 hPa 0,0 l/m 0 min 0 min 0 W/m 23,0 km/h (4 Bft)
19.10.2014 22:46 17,1 C 15,0 C 77 % 1016,0 hPa 0,0 l/m 0 min 0 min 0 W/m 23,0 km/h (4 Bft)
19.10.2014 22:48 17,0 C 15,0 C 77 % 1016,0 hPa 0,0 l/m 0 min 0 min 0 W/m 23,0 km/h (4 Bft)
19.10.2014 22:50 16,9 C 15,0 C 77 % 1016,0 hPa 0,0 l/m 0 min 0 min 0 W/m 25,1 km/h (4 Bft)
19.10.2014 22:52 16,9 C 15,0 C 78 % 1016,1 hPa 0,0 l/m 0 min 0 min 0 W/m 20,9 km/h (4 Bft)
19.10.2014 22:54 16,9 C 15,0 C 78 % 1016,1 hPa 0,0 l/m 0 min 0 min 0 W/m 20,9 km/h (4 Bft)
19.10.2014 22:56 16,8 C 14,4 C 78 % 1016,1 hPa 0,0 l/m 0 min 0 min 0 W/m 23,0 km/h (4 Bft)
19.10.2014 22:58 16,8 C 14,4 C 78 % 1016,1 hPa 0,0 l/m 0 min 0 min 0 W/m 20,9 km/h (4 Bft)
19.10.2014 23:00 16,8 C 14,4 C 78 % 1016,2 hPa 0,0 l/m 0 min 0 min 0 W/m 23,0 km/h (4 Bft)
19.10.2014 23:02 16,7 C 14,4 C 78 % 1016,2 hPa 0,0 l/m 0 min 0 min 0 W/m 20,9 km/h (4 Bft)
19.10.2014 23:04 16,7 C 14,4 C 79 % 1016,2 hPa 0,0 l/m 0 min 0 min 0 W/m 18,8 km/h (3 Bft)
19.10.2014 23:06 16,7 C 14,4 C 78 % 1016,2 hPa 0,0 l/m 0 min 0 min 0 W/m 20,9 km/h (4 Bft)
19.10.2014 23:08 16,7 C 14,4 C 79 % 1016,3 hPa 0,0 l/m 0 min 0 min 0 W/m 29,3 km/h (5 Bft)
19.10.2014 23:10 16,6 C 14,4 C 79 % 1016,3 hPa 0,0 l/m 0 min 0 min 0 W/m 18,8 km/h (3 Bft)
19.10.2014 23:12 16,6 C 14,4 C 79 % 1016,3 hPa 0,0 l/m 0 min 0 min 0 W/m 29,3 km/h (5 Bft)
19.10.2014 23:14 16,6 C 14,4 C 79 % 1016,3 hPa 0,0 l/m 0 min 0 min 0 W/m 18,8 km/h (3 Bft)
19.10.2014 23:16 16,5 C 14,4 C 79 % 1016,2 hPa 0,0 l/m 0 min 0 min 0 W/m 27,2 km/h (4 Bft)
19.10.2014 23:18 16,4 C 14,4 C 80 % 1016,2 hPa 0,0 l/m 0 min 0 min 0 W/m 29,3 km/h (5 Bft)
19.10.2014 23:20 16,4 C 14,4 C 80 % 1016,2 hPa 0,0 l/m 0 min 0 min 0 W/m 18,8 km/h (3 Bft)
19.10.2014 23:22 16,4 C 14,4 C 80 % 1016,2 hPa 0,0 l/m 0 min 0 min 0 W/m 25,1 km/h (4 Bft)
19.10.2014 23:24 16,4 C 14,4 C 80 % 1016,2 hPa 0,0 l/m 0 min 0 min 0 W/m 20,9 km/h (4 Bft)
19.10.2014 23:26 16,3 C 14,4 C 80 % 1016,2 hPa 0,0 l/m 0 min 0 min 0 W/m 23,0 km/h (4 Bft)
19.10.2014 23:28 16,3 C 14,4 C 80 % 1016,2 hPa 0,0 l/m 0 min 0 min 0 W/m 14,6 km/h (3 Bft)
19.10.2014 23:30 16,3 C 14,4 C 81 % 1016,3 hPa 0,0 l/m 0 min 0 min 0 W/m 14,6 km/h (3 Bft)
19.10.2014 23:32 16,3 C 13,9 C 81 % 1016,3 hPa 0,0 l/m 0 min 0 min 0 W/m 14,6 km/h (3 Bft)
19.10.2014 23:34 16,2 C 13,9 C 81 % 1016,4 hPa 0,0 l/m 0 min 0 min 0 W/m 27,2 km/h (4 Bft)
19.10.2014 23:36 16,2 C 13,9 C 81 % 1016,4 hPa 0,0 l/m 0 min 0 min 0 W/m 18,8 km/h (3 Bft)
19.10.2014 23:38 16,1 C 13,9 C 81 % 1016,4 hPa 0,0 l/m 0 min 0 min 0 W/m 23,0 km/h (4 Bft)
19.10.2014 23:40 16,1 C 13,9 C 81 % 1016,4 hPa 0,0 l/m 0 min 0 min 0 W/m 20,9 km/h (4 Bft)
19.10.2014 23:42 16,1 C 13,9 C 81 % 1016,4 hPa 0,0 l/m 0 min 0 min 0 W/m 16,7 km/h (3 Bft)
19.10.2014 23:44 16,1 C 13,9 C 81 % 1016,4 hPa 0,0 l/m 0 min 0 min 0 W/m 20,9 km/h (4 Bft)
19.10.2014 23:46 16,0 C 13,9 C 81 % 1016,4 hPa 0,0 l/m 0 min 0 min 0 W/m 20,9 km/h (4 Bft)
19.10.2014 23:48 16,0 C 13,9 C 82 % 1016,4 hPa 0,0 l/m 0 min 0 min 0 W/m 16,7 km/h (3 Bft)
19.10.2014 23:50 15,9 C 13,9 C 82 % 1016,4 hPa 0,0 l/m 0 min 0 min 0 W/m 20,9 km/h (4 Bft)
19.10.2014 23:52 15,9 C 13,9 C 82 % 1016,4 hPa 0,0 l/m 0 min 0 min 0 W/m 18,8 km/h (3 Bft)
19.10.2014 23:54 15,9 C 13,9 C 82 % 1016,4 hPa 0,0 l/m 0 min 0 min 0 W/m 20,9 km/h (4 Bft)
19.10.2014 23:56 15,9 C 13,9 C 82 % 1016,5 hPa 0,0 l/m 0 min 0 min 0 W/m 14,6 km/h (3 Bft)
19.10.2014 23:58 15,8 C 13,9 C 82 % 1016,4 hPa 0,0 l/m 0 min 0 min 0 W/m 25,1 km/h (4 Bft)
_ Min-Zeit 07:52 07:20 13:26 17:36 - - - - 00:18
Minimum _ 13,2 C 11,7 C 67 % 1013,9 hPa - - - - 6,3 km/h (2 Bft)
_ Max-Zeit 13:40 14:06 10:04 00:28 20:22 08:20 20:10 12:26 16:16
Maximum _ 25,0 C 21,7 C 99 % 1018,3 hPa 0,4 l/m 2 min 2 min 531 W/m 41,8 km/h
W-SW (6 Bft)
Durchschnitt _ 18,0 C 15,9 C 86 % 1015,7 hPa #0,4 l/m #8:50 h #12 min. 257 W/m 17,3 km/h (3 Bft)
© 2014 W. Hausmann